Observation data for South Plains 3ENE on 02/24/2021      Previous  Date  Next       Current Mesonet Observations  Soil Data  Daily Summary Page  Observations in Plain Language
KSP2 240600Z 25011KT 12/M08 A2982 RMK A01 T01161083  RH  024%=      5-min Rain = 0
KSP2 240601Z 26011KT 12/M08 A2982 RMK A01 T01151083  RH  024%=      5-min Rain = 0
KSP2 240602Z 26011KT 11/M08 A2982 RMK A01 T01141083  RH  024%=      5-min Rain = 0
KSP2 240603Z 26011KT 11/M08 A2982 RMK A01 T01131083  RH  024%=      5-min Rain = 0
KSP2 240604Z 26011KT 11/M08 A2982 RMK A01 T01131083  RH  025%=      5-min Rain = 0
KSP2 240605Z 26011KT 11/M08 A2982 RMK A01 T01121082  RH  025%=      5-min Rain = 0
KSP2 240606Z 26011KT 11/M08 A2982 RMK A01 T01111082  RH  025%=      5-min Rain = 0
KSP2 240607Z 26011KT 11/M08 A2982 RMK A01 T01111082  RH  025%=      5-min Rain = 0
KSP2 240608Z 26011KT 11/M08 A2982 RMK A01 T01101082  RH  025%=      5-min Rain = 0
KSP2 240609Z 26011KT 11/M08 A2982 RMK A01 T01091082  RH  025%=      5-min Rain = 0
KSP2 240610Z 26011KT 11/M08 A2982 RMK A01 T01091082  RH  025%=      5-min Rain = 0
KSP2 240611Z 27011KT 11/M08 A2982 RMK A01 T01091081  RH  025%=      5-min Rain = 0
KSP2 240612Z 27011KT 11/M08 A2982 RMK A01 T01081081  RH  026%=      5-min Rain = 0
KSP2 240613Z 27010KT 11/M08 A2982 RMK A01 T01071081  RH  026%=      5-min Rain = 0
KSP2 240614Z 27011KT 11/M08 A2982 RMK A01 T01071081  RH  026%=      5-min Rain = 0
KSP2 240615Z 27011KT 11/M08 A2982 RMK A01 T01071080  RH  026%=      5-min Rain = 0
KSP2 240616Z 27012KT 11/M08 A2982 RMK A01 T01071081  RH  026%=      5-min Rain = 0
KSP2 240617Z 27013KT 11/M08 A2982 RMK A01 T01091080  RH  026%=      5-min Rain = 0
KSP2 240618Z 27013KT 11/M08 A2982 RMK A01 T01101080  RH  026%=      5-min Rain = 0
KSP2 240619Z 27013KT 11/M08 A2982 RMK A01 T01121080  RH  025%=      5-min Rain = 0
KSP2 240620Z 28013KT 11/M08 A2982 RMK A01 T01141079  RH  025%=      5-min Rain = 0
KSP2 240621Z 28012KT 11/M08 A2982 RMK A01 T01141079  RH  025%=      5-min Rain = 0
KSP2 240622Z 27012KT 11/M08 A2982 RMK A01 T01131079  RH  025%=      5-min Rain = 0
KSP2 240623Z 28012KT 11/M08 A2982 RMK A01 T01131079  RH  025%=      5-min Rain = 0
KSP2 240624Z 28014KT 11/M08 A2983 RMK A01 T01131079  RH  025%=      5-min Rain = 0
KSP2 240625Z 28012KT 11/M08 A2983 RMK A01 T01141079  RH  025%=      5-min Rain = 0
KSP2 240626Z 28013KT 12/M08 A2983 RMK A01 T01161079  RH  025%=      5-min Rain = 0
KSP2 240627Z 28013KT 12/M08 A2983 RMK A01 T01171079  RH  025%=      5-min Rain = 0
KSP2 240628Z 28014KT 12/M08 A2983 RMK A01 T01171079  RH  025%=      5-min Rain = 0
KSP2 240629Z 28013KT 12/M08 A2983 RMK A01 T01171078  RH  025%=      5-min Rain = 0
KSP2 240630Z 28012KT 12/M08 A2983 RMK A01 T01161078  RH  025%=      5-min Rain = 0
KSP2 240631Z 28011KT 11/M08 A2983 RMK A01 T01141078  RH  025%=      5-min Rain = 0
KSP2 240632Z 27012KT 11/M08 A2983 RMK A01 T01111078  RH  026%=      5-min Rain = 0
KSP2 240633Z 27013KT 11/M08 A2983 RMK A01 T01101078  RH  026%=      5-min Rain = 0
KSP2 240634Z 27013KT 11/M08 A2983 RMK A01 T01091078  RH  026%=      5-min Rain = 0
KSP2 240635Z 27013KT 11/M08 A2983 RMK A01 T01091078  RH  026%=      5-min Rain = 0
KSP2 240636Z 27013KT 11/M08 A2983 RMK A01 T01091078  RH  026%=      5-min Rain = 0
KSP2 240637Z 26014KT 11/M08 A2983 RMK A01 T01081078  RH  026%=      5-min Rain = 0
KSP2 240638Z 26015KT 11/M08 A2982 RMK A01 T01081078  RH  026%=      5-min Rain = 0
KSP2 240639Z 26014KT 11/M08 A2982 RMK A01 T01091078  RH  026%=      5-min Rain = 0
KSP2 240640Z 26014KT 11/M08 A2982 RMK A01 T01091078  RH  026%=      5-min Rain = 0
KSP2 240641Z 26014KT 11/M08 A2982 RMK A01 T01081078  RH  026%=      5-min Rain = 0
KSP2 240642Z 26016KT 11/M08 A2982 RMK A01 T01081078  RH  026%=      5-min Rain = 0
KSP2 240643Z 26014KT 11/M08 A2982 RMK A01 T01071078  RH  026%=      5-min Rain = 0
KSP2 240644Z 26015KT 11/M08 A2982 RMK A01 T01071078  RH  026%=      5-min Rain = 0
KSP2 240645Z 26013KT 11/M08 A2982 RMK A01 T01081078  RH  026%=      5-min Rain = 0
KSP2 240646Z 27015KT 11/M08 A2982 RMK A01 T01081078  RH  026%=      5-min Rain = 0
KSP2 240647Z 27014KT 11/M08 A2983 RMK A01 T01091077  RH  026%=      5-min Rain = 0
KSP2 240648Z 27014KT 11/M08 A2983 RMK A01 T01091077  RH  026%=      5-min Rain = 0
KSP2 240649Z 27013KT 11/M08 A2983 RMK A01 T01101077  RH  026%=      5-min Rain = 0
KSP2 240650Z 27014KT 11/M08 A2983 RMK A01 T01101077  RH  026%=      5-min Rain = 0
KSP2 240651Z 27014KT 11/M08 A2983 RMK A01 T01101077  RH  026%=      5-min Rain = 0
KSP2 240652Z 28013G18KT 11/M08 A2983 RMK A01 T01111077  RH  026%=      5-min Rain = 0
KSP2 240653Z 28013KT 11/M08 A2983 RMK A01 T01121077  RH  026%=      5-min Rain = 0
KSP2 240654Z 28013KT 11/M08 A2983 RMK A01 T01121076  RH  026%=      5-min Rain = 0
KSP2 240655Z 28015KT 11/M08 A2983 RMK A01 T01111076  RH  026%=      5-min Rain = 0
KSP2 240656Z 28013KT 11/M08 A2983 RMK A01 T01101076  RH  026%=      5-min Rain = 0
KSP2 240657Z 28012KT 11/M08 A2983 RMK A01 T01091076  RH  027%=      5-min Rain = 0
KSP2 240658Z 28013KT 11/M08 A2983 RMK A01 T01071076  RH  027%=      5-min Rain = 0
KSP2 240659Z 27014KT 11/M08 A2983 RMK A01 T01071076  RH  027%=      5-min Rain = 0
KSP2 240700Z 27013KT 11/M08 A2983 RMK A01 T01061076  RH  027%=      5-min Rain = 0
KSP2 240701Z 27015KT 11/M08 A2983 RMK A01 T01061076  RH  027%=      5-min Rain = 0
KSP2 240702Z 27014KT 11/M08 A2983 RMK A01 T01071076  RH  027%=      5-min Rain = 0
KSP2 240703Z 27014G20KT 11/M08 A2983 RMK A01 T01081076  RH  027%=      5-min Rain = 0
KSP2 240704Z 27015KT 11/M08 A2983 RMK A01 T01081076  RH  027%=      5-min Rain = 0
KSP2 240705Z 27015KT 11/M08 A2983 RMK A01 T01101076  RH  026%=      5-min Rain = 0
KSP2 240706Z 27017KT 11/M08 A2983 RMK A01 T01111077  RH  026%=      5-min Rain = 0
KSP2 240707Z 27016KT 11/M08 A2983 RMK A01 T01121077  RH  026%=      5-min Rain = 0
KSP2 240708Z 27015KT 11/M08 A2983 RMK A01 T01131078  RH  026%=      5-min Rain = 0
KSP2 240709Z 27015KT 11/M08 A2983 RMK A01 T01141077  RH  025%=      5-min Rain = 0
KSP2 240710Z 27017KT 11/M08 A2983 RMK A01 T01141078  RH  025%=      5-min Rain = 0
KSP2 240711Z 27016KT 12/M08 A2983 RMK A01 T01151078  RH  025%=      5-min Rain = 0
KSP2 240712Z 27017KT 12/M08 A2983 RMK A01 T01151078  RH  025%=      5-min Rain = 0
KSP2 240713Z 27017KT 12/M08 A2983 RMK A01 T01171078  RH  025%=      5-min Rain = 0
KSP2 240714Z 26017KT 12/M08 A2983 RMK A01 T01181078  RH  025%=      5-min Rain = 0
KSP2 240715Z 27018KT 12/M08 A2983 RMK A01 T01191078  RH  024%=      5-min Rain = 0
KSP2 240716Z 27019KT 12/M08 A2983 RMK A01 T01211078  RH  024%=      5-min Rain = 0
KSP2 240717Z 27017KT 12/M08 A2983 RMK A01 T01221078  RH  024%=      5-min Rain = 0
KSP2 240718Z 27017KT 12/M08 A2983 RMK A01 T01221078  RH  024%=      5-min Rain = 0
KSP2 240719Z 27015KT 12/M08 A2984 RMK A01 T01231078  RH  024%=      5-min Rain = 0
KSP2 240720Z 27017G22KT 12/M08 A2984 RMK A01 T01231078  RH  024%=      5-min Rain = 0
KSP2 240721Z 28017KT 12/M08 A2984 RMK A01 T01221078  RH  024%=      5-min Rain = 0
KSP2 240722Z 28016KT 12/M08 A2984 RMK A01 T01221078  RH  024%=      5-min Rain = 0
KSP2 240723Z 29019KT 12/M08 A2985 RMK A01 T01231078  RH  024%=      5-min Rain = 0
KSP2 240724Z 29019G27KT 12/M08 A2985 RMK A01 T01231078  RH  024%=      5-min Rain = 0
KSP2 240725Z 30024G31KT 13/M08 A2986 RMK A01 T01251077  RH  024%=      5-min Rain = 0
KSP2 240726Z 30022G27KT 13/M08 A2986 RMK A01 T01311076  RH  023%=      5-min Rain = 0
KSP2 240727Z 31023G30KT 13/M08 A2986 RMK A01 T01311077  RH  023%=      5-min Rain = 0
KSP2 240728Z 30028G34KT 13/M08 A2986 RMK A01 T01311077  RH  023%=      5-min Rain = 0
KSP2 240729Z 30024KT 13/M08 A2986 RMK A01 T01331077  RH  023%=      5-min Rain = 0
KSP2 240730Z 30024G29KT 13/M08 A2986 RMK A01 T01331077  RH  023%=      5-min Rain = 0
KSP2 240731Z 31020G25KT 13/M08 A2987 RMK A01 T01321076  RH  023%=      5-min Rain = 0
KSP2 240732Z 31019G24KT 13/M08 A2987 RMK A01 T01291075  RH  023%=      5-min Rain = 0
KSP2 240733Z 31020KT 13/M08 A2987 RMK A01 T01281075  RH  024%=      5-min Rain = 0
KSP2 240734Z 31019G25KT 13/M08 A2987 RMK A01 T01271075  RH  024%=      5-min Rain = 0
KSP2 240735Z 31022G27KT 13/M07 A2987 RMK A01 T01261074  RH  024%=      5-min Rain = 0
KSP2 240736Z 31020KT 13/M07 A2987 RMK A01 T01251074  RH  024%=      5-min Rain = 0
KSP2 240737Z 30022G29KT 12/M07 A2987 RMK A01 T01241074  RH  025%=      5-min Rain = 0
KSP2 240738Z 31022G28KT 12/M07 A2987 RMK A01 T01231072  RH  025%=      5-min Rain = 0
KSP2 240739Z 31022G29KT 12/M07 A2987 RMK A01 T01221070  RH  025%=      5-min Rain = 0
KSP2 240740Z 31022G28KT 12/M07 A2987 RMK A01 T01201069  RH  026%=      5-min Rain = 0
KSP2 240741Z 32018G24KT 12/M07 A2987 RMK A01 T01181067  RH  027%=      5-min Rain = 0
KSP2 240742Z 32022G28KT 12/M07 A2987 RMK A01 T01171066  RH  027%=      5-min Rain = 0
KSP2 240743Z 32021G26KT 12/M07 A2987 RMK A01 T01151065  RH  028%=      5-min Rain = 0
KSP2 240744Z 32020KT 11/M06 A2987 RMK A01 T01141064  RH  028%=      5-min Rain = 0
KSP2 240745Z 32019G25KT 11/M06 A2988 RMK A01 T01121063  RH  029%=      5-min Rain = 0
KSP2 240746Z 32019G27KT 11/M06 A2988 RMK A01 T01111062  RH  029%=      5-min Rain = 0
KSP2 240747Z 32023G28KT 11/M06 A2988 RMK A01 T01101061  RH  030%=      5-min Rain = 0
KSP2 240748Z 32020G26KT 11/M06 A2988 RMK A01 T01101059  RH  030%=      5-min Rain = 0
KSP2 240749Z 32019G26KT 11/M06 A2988 RMK A01 T01081058  RH  031%=      5-min Rain = 0
KSP2 240750Z 32021G26KT 11/M06 A2988 RMK A01 T01071057  RH  031%=      5-min Rain = 0
KSP2 240751Z 32020G25KT 11/M06 A2988 RMK A01 T01061056  RH  032%=      5-min Rain = 0
KSP2 240752Z 32021G27KT 11/M05 A2988 RMK A01 T01061054  RH  032%=      5-min Rain = 0
KSP2 240753Z 32018G24KT 11/M05 A2989 RMK A01 T01051054  RH  032%=      5-min Rain = 0
KSP2 240754Z 32018KT 10/M05 A2989 RMK A01 T01041054  RH  032%=      5-min Rain = 0
KSP2 240755Z 32019KT 10/M05 A2989 RMK A01 T01031053  RH  033%=      5-min Rain = 0
KSP2 240756Z 32020G25KT 10/M05 A2989 RMK A01 T01021052  RH  033%=      5-min Rain = 0
KSP2 240757Z 33020G26KT 10/M05 A2989 RMK A01 T01021051  RH  034%=      5-min Rain = 0
KSP2 240758Z 33020G25KT 10/M05 A2989 RMK A01 T01011050  RH  034%=      5-min Rain = 0
KSP2 240759Z 32021KT 10/M05 A2989 RMK A01 T01011049  RH  034%=      5-min Rain = 0
KSP2 240800Z 32020G26KT 10/M05 A2989 RMK A01 T01001049  RH  035%=      5-min Rain = 0
KSP2 240801Z 33020KT 10/M05 A2989 RMK A01 T00991048  RH  035%=      5-min Rain = 0
KSP2 240802Z 33019G24KT 10/M05 A2989 RMK A01 T00991047  RH  035%=      5-min Rain = 0
KSP2 240803Z 33019G26KT 10/M05 A2989 RMK A01 T00981046  RH  036%=      5-min Rain = 0
KSP2 240804Z 32019KT 10/M05 A299 RMK A01 T00981045  RH  036%=      5-min Rain = 0
KSP2 240805Z 33018KT 10/M04 A299 RMK A01 T00971044  RH  036%=      5-min Rain = 0
KSP2 240806Z 33018KT 10/M04 A299 RMK A01 T00961044  RH  037%=      5-min Rain = 0
KSP2 240807Z 33019KT 10/M04 A299 RMK A01 T00961043  RH  037%=      5-min Rain = 0
KSP2 240808Z 33019KT 10/M04 A299 RMK A01 T00961042  RH  038%=      5-min Rain = 0
KSP2 240809Z 33018KT 10/M04 A2991 RMK A01 T00961042  RH  038%=      5-min Rain = 0
KSP2 240810Z 34018G23KT 10/M04 A2991 RMK A01 T00951041  RH  038%=      5-min Rain = 0
KSP2 240811Z 34019KT 10/M04 A2991 RMK A01 T00951040  RH  038%=      5-min Rain = 0
KSP2 240812Z 34017KT 10/M04 A2991 RMK A01 T00951040  RH  038%=      5-min Rain = 0
KSP2 240813Z 34019G27KT 09/M04 A2991 RMK A01 T00941040  RH  039%=      5-min Rain = 0
KSP2 240814Z 34019KT 09/M04 A2991 RMK A01 T00941040  RH  039%=      5-min Rain = 0
KSP2 240815Z 34018KT 09/M04 A2991 RMK A01 T00941039  RH  039%=      5-min Rain = 0
KSP2 240816Z 35019KT 10/M04 A2991 RMK A01 T00951039  RH  039%=      5-min Rain = 0
KSP2 240817Z 35019G24KT 10/M04 A2992 RMK A01 T00951039  RH  039%=      5-min Rain = 0
KSP2 240818Z 34018KT 09/M04 A2992 RMK A01 T00941039  RH  039%=      5-min Rain = 0
KSP2 240819Z 34017G22KT 09/M04 A2992 RMK A01 T00941039  RH  039%=      5-min Rain = 0
KSP2 240820Z 34018G23KT 09/M04 A2992 RMK A01 T00941039  RH  039%=      5-min Rain = 0
KSP2 240821Z 35018KT 09/M04 A2992 RMK A01 T00931039  RH  039%=      5-min Rain = 0
KSP2 240822Z 35018KT 09/M04 A2992 RMK A01 T00931039  RH  039%=      5-min Rain = 0
KSP2 240823Z 35019G24KT 09/M04 A2992 RMK A01 T00921039  RH  039%=      5-min Rain = 0
KSP2 240824Z 35021G26KT 09/M04 A2992 RMK A01 T00911039  RH  040%=      5-min Rain = 0
KSP2 240825Z 35020G25KT 09/M04 A2992 RMK A01 T00911039  RH  040%=      5-min Rain = 0
KSP2 240826Z 35020KT 09/M04 A2992 RMK A01 T00921039  RH  040%=      5-min Rain = 0
KSP2 240827Z 35019KT 09/M04 A2993 RMK A01 T00921039  RH  040%=      5-min Rain = 0
KSP2 240828Z 35017G22KT 09/M04 A2993 RMK A01 T00911039  RH  040%=      5-min Rain = 0
KSP2 240829Z 36017KT 09/M04 A2993 RMK A01 T00901039  RH  040%=      5-min Rain = 0
KSP2 240830Z 35019KT 09/M04 A2993 RMK A01 T00891039  RH  040%=      5-min Rain = 0
KSP2 240831Z 35020G26KT 09/M04 A2993 RMK A01 T00881039  RH  040%=      5-min Rain = 0
KSP2 240832Z 35018KT 09/M04 A2993 RMK A01 T00881039  RH  040%=      5-min Rain = 0
KSP2 240833Z 36017G24KT 09/M04 A2993 RMK A01 T00871039  RH  041%=      5-min Rain = 0
KSP2 240834Z 35018G23KT 09/M04 A2993 RMK A01 T00871039  RH  041%=      5-min Rain = 0
KSP2 240835Z 35017KT 09/M04 A2993 RMK A01 T00871039  RH  041%=      5-min Rain = 0
KSP2 240836Z 34016G21KT 09/M04 A2994 RMK A01 T00861039  RH  041%=      5-min Rain = 0
KSP2 240837Z 35018KT 09/M04 A2994 RMK A01 T00851039  RH  041%=      5-min Rain = 0
KSP2 240838Z 35020G25KT 09/M04 A2994 RMK A01 T00851039  RH  041%=      5-min Rain = 0
KSP2 240839Z 35016KT 09/M04 A2994 RMK A01 T00851039  RH  041%=      5-min Rain = 0
KSP2 240840Z 35014KT 09/M04 A2994 RMK A01 T00851039  RH  041%=      5-min Rain = 0
KSP2 240841Z 35016G21KT 08/M04 A2994 RMK A01 T00831039  RH  042%=      5-min Rain = 0
KSP2 240842Z 36017KT 08/M04 A2994 RMK A01 T00831039  RH  042%=      5-min Rain = 0
KSP2 240843Z 36018KT 08/M04 A2994 RMK A01 T00831039  RH  042%=      5-min Rain = 0
KSP2 240844Z 35018KT 08/M04 A2994 RMK A01 T00831039  RH  042%=      5-min Rain = 0
KSP2 240845Z 36018KT 08/M04 A2994 RMK A01 T00831039  RH  042%=      5-min Rain = 0
KSP2 240846Z 35019KT 08/M04 A2995 RMK A01 T00821039  RH  042%=      5-min Rain = 0
KSP2 240847Z 36018KT 08/M04 A2995 RMK A01 T00821039  RH  042%=      5-min Rain = 0
KSP2 240848Z 36017KT 08/M04 A2995 RMK A01 T00821039  RH  042%=      5-min Rain = 0
KSP2 240849Z 35016KT 08/M04 A2995 RMK A01 T00821039  RH  042%=      5-min Rain = 0
KSP2 240850Z 35017KT 08/M04 A2995 RMK A01 T00811038  RH  043%=      5-min Rain = 0
KSP2 240851Z 35016KT 08/M04 A2996 RMK A01 T00811039  RH  043%=      5-min Rain = 0
KSP2 240852Z 35015KT 08/M04 A2996 RMK A01 T00811038  RH  043%=      5-min Rain = 0
KSP2 240853Z 35012KT 08/M04 A2996 RMK A01 T00801038  RH  043%=      5-min Rain = 0
KSP2 240854Z 35013KT 08/M04 A2996 RMK A01 T00791039  RH  043%=      5-min Rain = 0
KSP2 240855Z 34013KT 08/M04 A2996 RMK A01 T00781039  RH  043%=      5-min Rain = 0
KSP2 240856Z 35012KT 08/M04 A2996 RMK A01 T00781039  RH  043%=      5-min Rain = 0
KSP2 240857Z 35017KT 08/M04 A2996 RMK A01 T00781039  RH  043%=      5-min Rain = 0
KSP2 240858Z 35015KT 08/M04 A2996 RMK A01 T00791039  RH  043%=      5-min Rain = 0
KSP2 240859Z 35015KT 08/M04 A2996 RMK A01 T00801039  RH  043%=      5-min Rain = 0
KSP2 240900Z 35017KT 08/M04 A2996 RMK A01 T00801039  RH  043%=      5-min Rain = 0
KSP2 240901Z 35017KT 08/M04 A2996 RMK A01 T00791039  RH  043%=      5-min Rain = 0
KSP2 240902Z 35016KT 08/M04 A2996 RMK A01 T00791039  RH  043%=      5-min Rain = 0
KSP2 240903Z 35015G20KT 08/M04 A2996 RMK A01 T00781039  RH  043%=      5-min Rain = 0
KSP2 240904Z 34016G22KT 08/M04 A2996 RMK A01 T00781039  RH  043%=      5-min Rain = 0
KSP2 240905Z 34014KT 08/M04 A2997 RMK A01 T00771040  RH  043%=      5-min Rain = 0
KSP2 240906Z 34014KT 08/M04 A2997 RMK A01 T00771040  RH  043%=      5-min Rain = 0
KSP2 240907Z 34014KT 08/M04 A2997 RMK A01 T00761040  RH  044%=      5-min Rain = 0
KSP2 240908Z 35014G19KT 08/M04 A2997 RMK A01 T00761040  RH  044%=      5-min Rain = 0
KSP2 240909Z 35014KT 08/M04 A2997 RMK A01 T00761040  RH  044%=      5-min Rain = 0
KSP2 240910Z 35015KT 08/M04 A2997 RMK A01 T00751040  RH  044%=      5-min Rain = 0
KSP2 240911Z 35015KT 08/M04 A2996 RMK A01 T00751040  RH  044%=      5-min Rain = 0
KSP2 240912Z 35018KT 08/M04 A2996 RMK A01 T00751040  RH  044%=      5-min Rain = 0
KSP2 240913Z 35016KT 08/M04 A2996 RMK A01 T00761040  RH  044%=      5-min Rain = 0
KSP2 240914Z 35017KT 08/M04 A2997 RMK A01 T00761040  RH  044%=      5-min Rain = 0
KSP2 240915Z 34015KT 08/M04 A2997 RMK A01 T00761040  RH  044%=      5-min Rain = 0
KSP2 240916Z 35015KT 08/M04 A2997 RMK A01 T00761040  RH  044%=      5-min Rain = 0
KSP2 240917Z 35018KT 08/M04 A2997 RMK A01 T00751041  RH  044%=      5-min Rain = 0
KSP2 240918Z 36019KT 08/M04 A2996 RMK A01 T00751041  RH  043%=      5-min Rain = 0
KSP2 240919Z 36020KT 08/M04 A2997 RMK A01 T00771042  RH  043%=      5-min Rain = 0
KSP2 240920Z 35019KT 08/M04 A2997 RMK A01 T00771042  RH  043%=      5-min Rain = 0
KSP2 240921Z 36014KT 08/M04 A2997 RMK A01 T00781042  RH  042%=      5-min Rain = 0
KSP2 240922Z 36016KT 08/M04 A2997 RMK A01 T00761043  RH  043%=      5-min Rain = 0
KSP2 240923Z 36016G22KT 08/M04 A2997 RMK A01 T00751042  RH  043%=      5-min Rain = 0
KSP2 240924Z 35016G21KT 07/M04 A2997 RMK A01 T00741042  RH  043%=      5-min Rain = 0
KSP2 240925Z 00014KT 07/M04 A2997 RMK A01 T00741042  RH  043%=      5-min Rain = 0
KSP2 240926Z 36013KT 07/M04 A2997 RMK A01 T00731042  RH  044%=      5-min Rain = 0
KSP2 240927Z 35014KT 07/M04 A2997 RMK A01 T00711043  RH  044%=      5-min Rain = 0
KSP2 240928Z 35015KT 07/M04 A2997 RMK A01 T00711042  RH  044%=      5-min Rain = 0
KSP2 240929Z 35015KT 07/M04 A2997 RMK A01 T00721042  RH  044%=      5-min Rain = 0
KSP2 240930Z 35015KT 07/M04 A2997 RMK A01 T00721042  RH  044%=      5-min Rain = 0
KSP2 240931Z 35013KT 07/M04 A2997 RMK A01 T00721042  RH  044%=      5-min Rain = 0
KSP2 240932Z 35013KT 07/M04 A2997 RMK A01 T00711042  RH  044%=      5-min Rain = 0
KSP2 240933Z 35013KT 07/M04 A2997 RMK A01 T00701043  RH  044%=      5-min Rain = 0
KSP2 240934Z 35013KT 07/M04 A2997 RMK A01 T00701043  RH  045%=      5-min Rain = 0
KSP2 240935Z 35013KT 07/M04 A2997 RMK A01 T00691043  RH  045%=      5-min Rain = 0
KSP2 240936Z 35014KT 07/M04 A2998 RMK A01 T00691043  RH  045%=      5-min Rain = 0
KSP2 240937Z 35013KT 07/M04 A2998 RMK A01 T00681043  RH  045%=      5-min Rain = 0
KSP2 240938Z 35015KT 07/M04 A2997 RMK A01 T00681043  RH  045%=      5-min Rain = 0
KSP2 240939Z 35016KT 07/M04 A2998 RMK A01 T00691043  RH  045%=      5-min Rain = 0
KSP2 240940Z 35014KT 07/M04 A2998 RMK A01 T00701043  RH  044%=      5-min Rain = 0
KSP2 240941Z 35014KT 07/M04 A2998 RMK A01 T00701044  RH  044%=      5-min Rain = 0
KSP2 240942Z 35016KT 07/M04 A2997 RMK A01 T00701044  RH  044%=      5-min Rain = 0
KSP2 240943Z 35017KT 07/M04 A2997 RMK A01 T00701044  RH  044%=      5-min Rain = 0
KSP2 240944Z 35015KT 07/M04 A2998 RMK A01 T00711044  RH  044%=      5-min Rain = 0
KSP2 240945Z 35015KT 07/M04 A2998 RMK A01 T00711044  RH  044%=      5-min Rain = 0
KSP2 240946Z 35014KT 07/M04 A2998 RMK A01 T00701044  RH  044%=      5-min Rain = 0
KSP2 240947Z 35015KT 07/M04 A2998 RMK A01 T00691044  RH  044%=      5-min Rain = 0
KSP2 240948Z 34015KT 07/M04 A2998 RMK A01 T00681044  RH  045%=      5-min Rain = 0
KSP2 240949Z 34015KT 07/M04 A2998 RMK A01 T00681044  RH  045%=      5-min Rain = 0
KSP2 240950Z 34015KT 07/M04 A2998 RMK A01 T00671044  RH  045%=      5-min Rain = 0
KSP2 240951Z 35013KT 07/M04 A2998 RMK A01 T00671044  RH  045%=      5-min Rain = 0
KSP2 240952Z 35014KT 07/M05 A2998 RMK A01 T00671045  RH  045%=      5-min Rain = 0
KSP2 240953Z 34015KT 07/M04 A2998 RMK A01 T00671044  RH  045%=      5-min Rain = 0
KSP2 240954Z 35015KT 07/M04 A2998 RMK A01 T00671044  RH  045%=      5-min Rain = 0
KSP2 240955Z 35017KT 07/M05 A2997 RMK A01 T00671045  RH  045%=      5-min Rain = 0
KSP2 240956Z 35015KT 07/M05 A2998 RMK A01 T00671045  RH  045%=      5-min Rain = 0
KSP2 240957Z 35015KT 07/M05 A2998 RMK A01 T00671045  RH  045%=      5-min Rain = 0
KSP2 240958Z 35014KT 07/M05 A2998 RMK A01 T00671045  RH  045%=      5-min Rain = 0
KSP2 240959Z 35015KT 07/M05 A2998 RMK A01 T00661045  RH  045%=      5-min Rain = 0
KSP2 241000Z 35015G20KT 07/M05 A2998 RMK A01 T00651045  RH  045%=      5-min Rain = 0
KSP2 241001Z 35016G21KT 07/M05 A2998 RMK A01 T00651045  RH  045%=      5-min Rain = 0
KSP2 241002Z 35015KT 07/M05 A2998 RMK A01 T00651046  RH  045%=      5-min Rain = 0
KSP2 241003Z 34016KT 07/M05 A2998 RMK A01 T00661045  RH  045%=      5-min Rain = 0
KSP2 241004Z 35014KT 07/M05 A2998 RMK A01 T00661045  RH  045%=      5-min Rain = 0
KSP2 241005Z 35015KT 07/M05 A2998 RMK A01 T00651046  RH  045%=      5-min Rain = 0
KSP2 241006Z 35016KT 06/M05 A2998 RMK A01 T00641046  RH  045%=      5-min Rain = 0
KSP2 241007Z 34014KT 07/M05 A2998 RMK A01 T00651046  RH  045%=      5-min Rain = 0
KSP2 241008Z 34013G18KT 06/M05 A2998 RMK A01 T00641046  RH  045%=      5-min Rain = 0
KSP2 241009Z 35015KT 06/M05 A2998 RMK A01 T00641046  RH  045%=      5-min Rain = 0
KSP2 241010Z 35013G18KT 06/M05 A2998 RMK A01 T00641047  RH  045%=      5-min Rain = 0
KSP2 241011Z 35015KT 06/M05 A2998 RMK A01 T00641047  RH  045%=      5-min Rain = 0
KSP2 241012Z 35015KT 06/M05 A2999 RMK A01 T00641047  RH  045%=      5-min Rain = 0
KSP2 241013Z 35014KT 06/M05 A2999 RMK A01 T00641047  RH  045%=      5-min Rain = 0
KSP2 241014Z 35015KT 06/M05 A2999 RMK A01 T00631047  RH  045%=      5-min Rain = 0
KSP2 241015Z 35015KT 06/M05 A2999 RMK A01 T00641047  RH  045%=      5-min Rain = 0
KSP2 241016Z 35014KT 06/M05 A2999 RMK A01 T00641047  RH  045%=      5-min Rain = 0
KSP2 241017Z 35012G17KT 06/M05 A2999 RMK A01 T00641047  RH  045%=      5-min Rain = 0
KSP2 241018Z 35012KT 06/M05 A2999 RMK A01 T00641047  RH  045%=      5-min Rain = 0
KSP2 241019Z 35012KT 06/M05 A2999 RMK A01 T00631048  RH  045%=      5-min Rain = 0
KSP2 241020Z 35012KT 06/M05 A30 RMK A01 T00621048  RH  045%=      5-min Rain = 0
KSP2 241021Z 35014KT 06/M05 A30 RMK A01 T00621047  RH  045%=      5-min Rain = 0
KSP2 241022Z 35014KT 06/M05 A30 RMK A01 T00621047  RH  046%=      5-min Rain = 0
KSP2 241023Z 35013KT 06/M05 A30 RMK A01 T00621047  RH  045%=      5-min Rain = 0
KSP2 241024Z 35012KT 06/M05 A30 RMK A01 T00621047  RH  045%=      5-min Rain = 0
KSP2 241025Z 35011KT 06/M05 A30 RMK A01 T00611047  RH  046%=      5-min Rain = 0
KSP2 241026Z 35012KT 06/M05 A30 RMK A01 T00611047  RH  046%=      5-min Rain = 0
KSP2 241027Z 36012KT 06/M05 A30 RMK A01 T00611047  RH  046%=      5-min Rain = 0
KSP2 241028Z 35011KT 06/M05 A30 RMK A01 T00601047  RH  046%=      5-min Rain = 0
KSP2 241029Z 35012KT 06/M05 A3001 RMK A01 T00601047  RH  046%=      5-min Rain = 0
KSP2 241030Z 35013KT 06/M05 A3001 RMK A01 T00601047  RH  046%=      5-min Rain = 0
KSP2 241031Z 36011KT 06/M05 A3001 RMK A01 T00601047  RH  046%=      5-min Rain = 0
KSP2 241032Z 36011KT 06/M05 A3001 RMK A01 T00591047  RH  046%=      5-min Rain = 0
KSP2 241033Z 35013KT 06/M05 A3001 RMK A01 T00591047  RH  047%=      5-min Rain = 0
KSP2 241034Z 00013G18KT 06/M05 A3001 RMK A01 T00591047  RH  047%=      5-min Rain = 0
KSP2 241035Z 36013KT 06/M05 A3001 RMK A01 T00601046  RH  046%=      5-min Rain = 0
KSP2 241036Z 36012KT 06/M05 A3001 RMK A01 T00601047  RH  046%=      5-min Rain = 0
KSP2 241037Z 35014KT 06/M05 A3001 RMK A01 T00601047  RH  046%=      5-min Rain = 0
KSP2 241038Z 35013KT 06/M05 A3001 RMK A01 T00601046  RH  046%=      5-min Rain = 0
KSP2 241039Z 35013KT 06/M05 A3001 RMK A01 T00601046  RH  046%=      5-min Rain = 0
KSP2 241040Z 35012KT 06/M05 A3001 RMK A01 T00591046  RH  047%=      5-min Rain = 0
KSP2 241041Z 35012KT 06/M05 A3001 RMK A01 T00581046  RH  047%=      5-min Rain = 0
KSP2 241042Z 35012KT 06/M05 A3001 RMK A01 T00571046  RH  047%=      5-min Rain = 0
KSP2 241043Z 35011KT 06/M05 A3001 RMK A01 T00571046  RH  048%=      5-min Rain = 0
KSP2 241044Z 35010KT 06/M05 A3001 RMK A01 T00561046  RH  048%=      5-min Rain = 0
KSP2 241045Z 35012KT 06/M05 A3001 RMK A01 T00551046  RH  048%=      5-min Rain = 0
KSP2 241046Z 35011KT 06/M05 A3001 RMK A01 T00551046  RH  048%=      5-min Rain = 0
KSP2 241047Z 35012KT 06/M05 A3001 RMK A01 T00551045  RH  048%=      5-min Rain = 0
KSP2 241048Z 35011KT 06/M05 A3001 RMK A01 T00551045  RH  048%=      5-min Rain = 0
KSP2 241049Z 35011KT 06/M05 A3001 RMK A01 T00551046  RH  048%=      5-min Rain = 0
KSP2 241050Z 35012KT 06/M05 A3001 RMK A01 T00551045  RH  049%=      5-min Rain = 0
KSP2 241051Z 35011KT 05/M05 A3001 RMK A01 T00541045  RH  049%=      5-min Rain = 0
KSP2 241052Z 35012KT 05/M05 A3002 RMK A01 T00541045  RH  049%=      5-min Rain = 0
KSP2 241053Z 35013KT 05/M05 A3002 RMK A01 T00541045  RH  049%=      5-min Rain = 0
KSP2 241054Z 36014KT 06/M04 A3002 RMK A01 T00551044  RH  049%=      5-min Rain = 0
KSP2 241055Z 35012KT 06/M04 A3002 RMK A01 T00561044  RH  049%=      5-min Rain = 0
KSP2 241056Z 36011KT 06/M04 A3002 RMK A01 T00561044  RH  048%=      5-min Rain = 0
KSP2 241057Z 35012KT 06/M05 A3002 RMK A01 T00551045  RH  049%=      5-min Rain = 0
KSP2 241058Z 35012KT 06/M04 A3002 RMK A01 T00551044  RH  049%=      5-min Rain = 0
KSP2 241059Z 35011KT 05/M04 A3002 RMK A01 T00541044  RH  049%=      5-min Rain = 0
KSP2 241100Z 35012KT 05/M04 A3002 RMK A01 T00541044  RH  049%=      5-min Rain = 0
KSP2 241101Z 35012KT 05/M04 A3002 RMK A01 T00541044  RH  049%=      5-min Rain = 0
KSP2 241102Z 34012KT 05/M04 A3002 RMK A01 T00541044  RH  049%=      5-min Rain = 0
KSP2 241103Z 35012KT 05/M04 A3002 RMK A01 T00531044  RH  049%=      5-min Rain = 0
KSP2 241104Z 35012KT 05/M04 A3002 RMK A01 T00531044  RH  050%=      5-min Rain = 0
KSP2 241105Z 35013KT 05/M04 A3002 RMK A01 T00531044  RH  050%=      5-min Rain = 0
KSP2 241106Z 34012KT 05/M04 A3002 RMK A01 T00531044  RH  050%=      5-min Rain = 0
KSP2 241107Z 34011G16KT 05/M04 A3002 RMK A01 T00521044  RH  050%=      5-min Rain = 0
KSP2 241108Z 35013KT 05/M04 A3003 RMK A01 T00521043  RH  050%=      5-min Rain = 0
KSP2 241109Z 35015KT 05/M04 A3003 RMK A01 T00521043  RH  050%=      5-min Rain = 0
KSP2 241110Z 35013KT 05/M04 A3003 RMK A01 T00531043  RH  050%=      5-min Rain = 0
KSP2 241111Z 35013KT 05/M04 A3003 RMK A01 T00531043  RH  050%=      5-min Rain = 0
KSP2 241112Z 35014KT 05/M04 A3003 RMK A01 T00531042  RH  050%=      5-min Rain = 0
KSP2 241113Z 35013KT 05/M04 A3003 RMK A01 T00531043  RH  050%=      5-min Rain = 0
KSP2 241114Z 35013KT 05/M04 A3003 RMK A01 T00531042  RH  050%=      5-min Rain = 0
KSP2 241115Z 35012KT 05/M04 A3003 RMK A01 T00531042  RH  050%=      5-min Rain = 0
KSP2 241116Z 35012KT 05/M04 A3003 RMK A01 T00521043  RH  050%=      5-min Rain = 0
KSP2 241117Z 36013KT 05/M04 A3003 RMK A01 T00521043  RH  051%=      5-min Rain = 0
KSP2 241118Z 35013KT 05/M04 A3003 RMK A01 T00521042  RH  050%=      5-min Rain = 0
KSP2 241119Z 35013KT 05/M04 A3003 RMK A01 T00521042  RH  050%=      5-min Rain = 0
KSP2 241120Z 35014KT 05/M04 A3003 RMK A01 T00531042  RH  050%=      5-min Rain = 0
KSP2 241121Z 35012KT 05/M04 A3003 RMK A01 T00541042  RH  050%=      5-min Rain = 0
KSP2 241122Z 35013KT 05/M04 A3003 RMK A01 T00531042  RH  050%=      5-min Rain = 0
KSP2 241123Z 35013KT 05/M04 A3003 RMK A01 T00521042  RH  051%=      5-min Rain = 0
KSP2 241124Z 35013KT 05/M04 A3003 RMK A01 T00521042  RH  051%=      5-min Rain = 0
KSP2 241125Z 35013KT 05/M04 A3003 RMK A01 T00521042  RH  051%=      5-min Rain = 0
KSP2 241126Z 34013KT 05/M04 A3003 RMK A01 T00511042  RH  051%=      5-min Rain = 0
KSP2 241127Z 35013KT 05/M04 A3003 RMK A01 T00511042  RH  051%=      5-min Rain = 0
KSP2 241128Z 35013KT 05/M04 A3003 RMK A01 T00511042  RH  051%=      5-min Rain = 0
KSP2 241129Z 35012KT 05/M04 A3003 RMK A01 T00511042  RH  051%=      5-min Rain = 0
KSP2 241130Z 35014KT 05/M04 A3003 RMK A01 T00511042  RH  051%=      5-min Rain = 0
KSP2 241131Z 35013KT 05/M04 A3003 RMK A01 T00511042  RH  051%=      5-min Rain = 0
KSP2 241132Z 35013KT 05/M04 A3004 RMK A01 T00521042  RH  051%=      5-min Rain = 0
KSP2 241133Z 35012KT 05/M04 A3004 RMK A01 T00521042  RH  051%=      5-min Rain = 0
KSP2 241134Z 34012KT 05/M04 A3004 RMK A01 T00521042  RH  051%=      5-min Rain = 0
KSP2 241135Z 34012KT 05/M04 A3004 RMK A01 T00511043  RH  051%=      5-min Rain = 0
KSP2 241136Z 33012KT 05/M04 A3004 RMK A01 T00501043  RH  051%=      5-min Rain = 0
KSP2 241137Z 34013KT 05/M04 A3004 RMK A01 T00501043  RH  051%=      5-min Rain = 0
KSP2 241138Z 34011KT 05/M04 A3004 RMK A01 T00491044  RH  051%=      5-min Rain = 0
KSP2 241139Z 34012KT 05/M04 A3004 RMK A01 T00481044  RH  052%=      5-min Rain = 0
KSP2 241140Z 35013KT 05/M04 A3004 RMK A01 T00471044  RH  052%=      5-min Rain = 0
KSP2 241141Z 35012KT 05/M04 A3004 RMK A01 T00461044  RH  052%=      5-min Rain = 0
KSP2 241142Z 35013KT 05/M04 A3004 RMK A01 T00451044  RH  052%=      5-min Rain = 0
KSP2 241143Z 36014G20KT 05/M04 A3004 RMK A01 T00461043  RH  052%=      5-min Rain = 0
KSP2 241144Z 36018KT 05/M04 A3004 RMK A01 T00471043  RH  052%=      5-min Rain = 0
KSP2 241145Z 35017KT 05/M04 A3004 RMK A01 T00511042  RH  051%=      5-min Rain = 0
KSP2 241146Z 35015KT 05/M04 A3004 RMK A01 T00521042  RH  051%=      5-min Rain = 0
KSP2 241147Z 35015KT 05/M04 A3004 RMK A01 T00521043  RH  050%=      5-min Rain = 0
KSP2 241148Z 36015KT 05/M04 A3004 RMK A01 T00521043  RH  050%=      5-min Rain = 0
KSP2 241149Z 36015KT 05/M04 A3005 RMK A01 T00521043  RH  050%=      5-min Rain = 0
KSP2 241150Z 35015KT 05/M04 A3005 RMK A01 T00521043  RH  050%=      5-min Rain = 0
KSP2 241151Z 35011KT 05/M04 A3005 RMK A01 T00511043  RH  050%=      5-min Rain = 0
KSP2 241152Z 35014KT 05/M04 A3005 RMK A01 T00501044  RH  051%=      5-min Rain = 0
KSP2 241153Z 35012KT 05/M04 A3005 RMK A01 T00501043  RH  051%=      5-min Rain = 0
KSP2 241154Z 35013KT 05/M04 A3005 RMK A01 T00491043  RH  051%=      5-min Rain = 0
KSP2 241155Z 35012KT 05/M04 A3005 RMK A01 T00491044  RH  051%=      5-min Rain = 0
KSP2 241156Z 35014KT 05/M04 A3005 RMK A01 T00491043  RH  051%=      5-min Rain = 0
KSP2 241157Z 35013KT 05/M04 A3005 RMK A01 T00491043  RH  051%=      5-min Rain = 0
KSP2 241158Z 35013KT 05/M04 A3005 RMK A01 T00491044  RH  051%=      5-min Rain = 0
KSP2 241159Z 35015KT 05/M04 A3005 RMK A01 T00491044  RH  051%=      5-min Rain = 0
KSP2 241200Z 35013KT 05/M04 A3005 RMK A01 T00491044  RH  051%=      5-min Rain = 0
KSP2 241201Z 35013KT 05/M04 A3005 RMK A01 T00491043  RH  051%=      5-min Rain = 0
KSP2 241202Z 35014KT 05/M04 A3005 RMK A01 T00481043  RH  051%=      5-min Rain = 0
KSP2 241203Z 35013KT 05/M04 A3005 RMK A01 T00481043  RH  052%=      5-min Rain = 0
KSP2 241204Z 36014KT 05/M04 A3005 RMK A01 T00481044  RH  052%=      5-min Rain = 0
KSP2 241205Z 35015KT 05/M04 A3005 RMK A01 T00481044  RH  051%=      5-min Rain = 0
KSP2 241206Z 36015KT 05/M04 A3005 RMK A01 T00491044  RH  051%=      5-min Rain = 0
KSP2 241207Z 00015KT 05/M04 A3005 RMK A01 T00491044  RH  051%=      5-min Rain = 0
KSP2 241208Z 00014KT 05/M04 A3005 RMK A01 T00491044  RH  051%=      5-min Rain = 0
KSP2 241209Z 00015KT 05/M04 A3005 RMK A01 T00491044  RH  051%=      5-min Rain = 0
KSP2 241210Z 00015KT 05/M04 A3005 RMK A01 T00501044  RH  051%=      5-min Rain = 0
KSP2 241211Z 00015KT 05/M04 A3006 RMK A01 T00491044  RH  051%=      5-min Rain = 0
KSP2 241212Z 00014KT 05/M04 A3006 RMK A01 T00481044  RH  051%=      5-min Rain = 0
KSP2 241213Z 00014KT 05/M04 A3006 RMK A01 T00481044  RH  051%=      5-min Rain = 0
KSP2 241214Z 00014KT 05/M04 A3006 RMK A01 T00471044  RH  052%=      5-min Rain = 0
KSP2 241215Z 36013KT 05/M05 A3006 RMK A01 T00461045  RH  052%=      5-min Rain = 0
KSP2 241216Z 00014KT 05/M05 A3006 RMK A01 T00451045  RH  052%=      5-min Rain = 0
KSP2 241217Z 00014KT 05/M04 A3006 RMK A01 T00461044  RH  052%=      5-min Rain = 0
KSP2 241218Z 00014KT 05/M05 A3006 RMK A01 T00451045  RH  052%=      5-min Rain = 0
KSP2 241219Z 00013KT 05/M05 A3006 RMK A01 T00451045  RH  052%=      5-min Rain = 0
KSP2 241220Z 36013KT 05/M04 A3006 RMK A01 T00451044  RH  052%=      5-min Rain = 0
KSP2 241221Z 36013KT 04/M05 A3006 RMK A01 T00441045  RH  052%=      5-min Rain = 0
KSP2 241222Z 35012KT 04/M05 A3006 RMK A01 T00431045  RH  053%=      5-min Rain = 0
KSP2 241223Z 36013KT 04/M05 A3006 RMK A01 T00421045  RH  053%=      5-min Rain = 0
KSP2 241224Z 35012KT 04/M05 A3006 RMK A01 T00431045  RH  053%=      5-min Rain = 0
KSP2 241225Z 36013KT 04/M05 A3006 RMK A01 T00431045  RH  053%=      5-min Rain = 0
KSP2 241226Z 36014KT 04/M05 A3006 RMK A01 T00431045  RH  053%=      5-min Rain = 0
KSP2 241227Z 36015KT 04/M05 A3006 RMK A01 T00431045  RH  053%=      5-min Rain = 0
KSP2 241228Z 00013KT 04/M05 A3006 RMK A01 T00431045  RH  053%=      5-min Rain = 0
KSP2 241229Z 00013KT 04/M05 A3006 RMK A01 T00431045  RH  053%=      5-min Rain = 0
KSP2 241230Z 36015KT 04/M05 A3006 RMK A01 T00431045  RH  053%=      5-min Rain = 0
KSP2 241231Z 36013KT 04/M05 A3007 RMK A01 T00441045  RH  053%=      5-min Rain = 0
KSP2 241232Z 36014KT 04/M05 A3007 RMK A01 T00441045  RH  053%=      5-min Rain = 0
KSP2 241233Z 35012G18KT 04/M05 A3007 RMK A01 T00441045  RH  052%=      5-min Rain = 0
KSP2 241234Z 36012KT 04/M05 A3007 RMK A01 T00431045  RH  053%=      5-min Rain = 0
KSP2 241235Z 36012KT 04/M05 A3007 RMK A01 T00421045  RH  053%=      5-min Rain = 0
KSP2 241236Z 36012KT 04/M05 A3007 RMK A01 T00411045  RH  053%=      5-min Rain = 0
KSP2 241237Z 00015KT 04/M05 A3007 RMK A01 T00401045  RH  054%=      5-min Rain = 0
KSP2 241238Z 36015KT 04/M05 A3007 RMK A01 T00411045  RH  054%=      5-min Rain = 0
KSP2 241239Z 36014KT 04/M04 A3007 RMK A01 T00421044  RH  054%=      5-min Rain = 0
KSP2 241240Z 36014KT 04/M04 A3007 RMK A01 T00421044  RH  053%=      5-min Rain = 0
KSP2 241241Z 36013KT 04/M04 A3007 RMK A01 T00421044  RH  053%=      5-min Rain = 0
KSP2 241242Z 35013KT 04/M04 A3007 RMK A01 T00421044  RH  053%=      5-min Rain = 0
KSP2 241243Z 35013KT 04/M04 A3008 RMK A01 T00431044  RH  053%=      5-min Rain = 0
KSP2 241244Z 35013KT 04/M04 A3008 RMK A01 T00421044  RH  053%=      5-min Rain = 0
KSP2 241245Z 35013KT 04/M04 A3008 RMK A01 T00421044  RH  054%=      5-min Rain = 0
KSP2 241246Z 36014KT 04/M04 A3008 RMK A01 T00411044  RH  054%=      5-min Rain = 0
KSP2 241247Z 36013KT 04/M04 A3008 RMK A01 T00421043  RH  054%=      5-min Rain = 0
KSP2 241248Z 36014KT 04/M04 A3008 RMK A01 T00411044  RH  054%=      5-min Rain = 0
KSP2 241249Z 00013KT 04/M04 A3008 RMK A01 T00411044  RH  054%=      5-min Rain = 0
KSP2 241250Z 00013KT 04/M04 A3008 RMK A01 T00411044  RH  054%=      5-min Rain = 0
KSP2 241251Z 01013KT 04/M04 A3008 RMK A01 T00401044  RH  054%=      5-min Rain = 0
KSP2 241252Z 00013KT 04/M04 A3008 RMK A01 T00391044  RH  055%=      5-min Rain = 0
KSP2 241253Z 00013KT 04/M04 A3008 RMK A01 T00391043  RH  055%=      5-min Rain = 0
KSP2 241254Z 36014KT 04/M04 A3008 RMK A01 T00391044  RH  055%=      5-min Rain = 0
KSP2 241255Z 36015KT 04/M04 A3008 RMK A01 T00391044  RH  055%=      5-min Rain = 0
KSP2 241256Z 36014KT 04/M04 A3008 RMK A01 T00391044  RH  055%=      5-min Rain = 0
KSP2 241257Z 36015KT 04/M04 A3008 RMK A01 T00391044  RH  055%=      5-min Rain = 0
KSP2 241258Z 36015KT 04/M04 A3008 RMK A01 T00391044  RH  055%=      5-min Rain = 0
KSP2 241259Z 35014KT 04/M04 A3009 RMK A01 T00391044  RH  055%=      5-min Rain = 0
KSP2 241300Z 35013KT 04/M04 A3009 RMK A01 T00391043  RH  055%=      5-min Rain = 0
KSP2 241301Z 35014KT 04/M04 A3009 RMK A01 T00391043  RH  055%=      5-min Rain = 0
KSP2 241302Z 35014KT 04/M04 A3009 RMK A01 T00381044  RH  055%=      5-min Rain = 0
KSP2 241303Z 35014G19KT 04/M04 A3009 RMK A01 T00391043  RH  055%=      5-min Rain = 0
KSP2 241304Z 35014KT 04/M04 A3009 RMK A01 T00391043  RH  055%=      5-min Rain = 0
KSP2 241305Z 35014KT 04/M04 A3009 RMK A01 T00391043  RH  055%=      5-min Rain = 0
KSP2 241306Z 35014KT 04/M04 A3009 RMK A01 T00391043  RH  055%=      5-min Rain = 0
KSP2 241307Z 35017G22KT 04/M04 A3009 RMK A01 T00381043  RH  055%=      5-min Rain = 0
KSP2 241308Z 35013KT 04/M04 A3009 RMK A01 T00401042  RH  055%=      5-min Rain = 0
KSP2 241309Z 35016KT 04/M04 A3009 RMK A01 T00401043  RH  055%=      5-min Rain = 0
KSP2 241310Z 35014KT 04/M04 A3009 RMK A01 T00391043  RH  055%=      5-min Rain = 0
KSP2 241311Z 35013KT 04/M04 A3009 RMK A01 T00401042  RH  055%=      5-min Rain = 0
KSP2 241312Z 35015KT 04/M04 A3009 RMK A01 T00381043  RH  055%=      5-min Rain = 0
KSP2 241313Z 36015KT 04/M04 A3009 RMK A01 T00381042  RH  056%=      5-min Rain = 0
KSP2 241314Z 36015KT 04/M04 A3009 RMK A01 T00381041  RH  056%=      5-min Rain = 0
KSP2 241315Z 00016KT 04/M04 A3009 RMK A01 T00391041  RH  056%=      5-min Rain = 0
KSP2 241316Z 36016KT 04/M04 A3009 RMK A01 T00391040  RH  056%=      5-min Rain = 0
KSP2 241317Z 36016KT 04/M04 A3009 RMK A01 T00391041  RH  056%=      5-min Rain = 0
KSP2 241318Z 36016G21KT 04/M04 A3009 RMK A01 T00391040  RH  056%=      5-min Rain = 0
KSP2 241319Z 36016KT 04/M04 A301 RMK A01 T00391041  RH  056%=      5-min Rain = 0
KSP2 241320Z 36016KT 04/M04 A301 RMK A01 T00391040  RH  056%=      5-min Rain = 0
KSP2 241321Z 36014KT 04/M04 A301 RMK A01 T00381041  RH  056%=      5-min Rain = 0
KSP2 241322Z 36015G20KT 04/M04 A301 RMK A01 T00371041  RH  057%=      5-min Rain = 0
KSP2 241323Z 00015KT 04/M04 A301 RMK A01 T00371040  RH  057%=      5-min Rain = 0
KSP2 241324Z 00014KT 04/M04 A301 RMK A01 T00371040  RH  057%=      5-min Rain = 0
KSP2 241325Z 36014KT 04/M04 A301 RMK A01 T00361040  RH  057%=      5-min Rain = 0
KSP2 241326Z 36012KT 04/M04 A301 RMK A01 T00351040  RH  058%=      5-min Rain = 0
KSP2 241327Z 36015KT 04/M04 A301 RMK A01 T00351039  RH  058%=      5-min Rain = 0
KSP2 241328Z 36015KT 04/M04 A301 RMK A01 T00351039  RH  058%=      5-min Rain = 0
KSP2 241329Z 36012KT 04/M04 A301 RMK A01 T00351039  RH  058%=      5-min Rain = 0
KSP2 241330Z 00012KT 04/M04 A301 RMK A01 T00351039  RH  058%=      5-min Rain = 0
KSP2 241331Z 36012KT 04/M04 A3011 RMK A01 T00351039  RH  058%=      5-min Rain = 0
KSP2 241332Z 36012KT 03/M04 A3011 RMK A01 T00341039  RH  059%=      5-min Rain = 0
KSP2 241333Z 35012KT 03/M04 A3011 RMK A01 T00341039  RH  059%=      5-min Rain = 0
KSP2 241334Z 35012KT 04/M04 A3011 RMK A01 T00351038  RH  059%=      5-min Rain = 0
KSP2 241335Z 35010KT 03/M04 A3011 RMK A01 T00341039  RH  059%=      5-min Rain = 0
KSP2 241336Z 36013KT 04/M04 A3011 RMK A01 T00351038  RH  059%=      5-min Rain = 0
KSP2 241337Z 35012KT 04/M04 A3011 RMK A01 T00351038  RH  059%=      5-min Rain = 0
KSP2 241338Z 36013G18KT 04/M04 A3011 RMK A01 T00351038  RH  059%=      5-min Rain = 0
KSP2 241339Z 36013KT 04/M04 A3011 RMK A01 T00361037  RH  059%=      5-min Rain = 0
KSP2 241340Z 36012KT 04/M04 A3011 RMK A01 T00361037  RH  059%=      5-min Rain = 0
KSP2 241341Z 36013KT 04/M04 A3011 RMK A01 T00361037  RH  059%=      5-min Rain = 0
KSP2 241342Z 36012KT 04/M04 A3011 RMK A01 T00361036  RH  059%=      5-min Rain = 0
KSP2 241343Z 00011KT 04/M04 A3011 RMK A01 T00361036  RH  059%=      5-min Rain = 0
KSP2 241344Z 00012KT 04/M04 A3012 RMK A01 T00361036  RH  059%=      5-min Rain = 0
KSP2 241345Z 36013KT 04/M04 A3012 RMK A01 T00361036  RH  060%=      5-min Rain = 0
KSP2 241346Z 36013KT 04/M04 A3012 RMK A01 T00361035  RH  060%=      5-min Rain = 0
KSP2 241347Z 00011KT 04/M04 A3012 RMK A01 T00361036  RH  060%=      5-min Rain = 0
KSP2 241348Z 00011KT 04/M04 A3012 RMK A01 T00361035  RH  060%=      5-min Rain = 0
KSP2 241349Z 36012KT 04/M03 A3012 RMK A01 T00361034  RH  060%=      5-min Rain = 0
KSP2 241350Z 36011KT 04/M03 A3012 RMK A01 T00361034  RH  060%=      5-min Rain = 0
KSP2 241351Z 00010KT 04/M03 A3012 RMK A01 T00361034  RH  060%=      5-min Rain = 0
KSP2 241352Z 00012KT 04/M03 A3012 RMK A01 T00361034  RH  060%=      5-min Rain = 0
KSP2 241353Z 00013KT 04/M03 A3012 RMK A01 T00361034  RH  060%=      5-min Rain = 0
KSP2 241354Z 00011KT 04/M03 A3012 RMK A01 T00371033  RH  060%=      5-min Rain = 0
KSP2 241355Z 00012G17KT 04/M03 A3012 RMK A01 T00371033  RH  060%=      5-min Rain = 0
KSP2 241356Z 00012KT 04/M03 A3013 RMK A01 T00371034  RH  060%=      5-min Rain = 0
KSP2 241357Z 00011KT 04/M03 A3013 RMK A01 T00371033  RH  060%=      5-min Rain = 0
KSP2 241358Z 36011KT 04/M03 A3013 RMK A01 T00381033  RH  060%=      5-min Rain = 0
KSP2 241359Z 36011KT 04/M03 A3013 RMK A01 T00381033  RH  060%=      5-min Rain = 0
KSP2 241400Z 36011KT 04/M03 A3013 RMK A01 T00381033  RH  060%=      5-min Rain = 0
KSP2 241401Z 36011KT 04/M03 A3013 RMK A01 T00381033  RH  060%=      5-min Rain = 0
KSP2 241402Z 36010KT 04/M03 A3013 RMK A01 T00381032  RH  060%=      5-min Rain = 0
KSP2 241403Z 36012KT 04/M03 A3013 RMK A01 T00381032  RH  060%=      5-min Rain = 0
KSP2 241404Z 36011KT 04/M03 A3013 RMK A01 T00391032  RH  060%=      5-min Rain = 0
KSP2 241405Z 36013KT 04/M03 A3013 RMK A01 T00391032  RH  060%=      5-min Rain = 0
KSP2 241406Z 36012KT 04/M03 A3013 RMK A01 T00391032  RH  060%=      5-min Rain = 0
KSP2 241407Z 36012KT 04/M03 A3013 RMK A01 T00391032  RH  060%=      5-min Rain = 0
KSP2 241408Z 36012KT 04/M03 A3013 RMK A01 T00391032  RH  060%=      5-min Rain = 0
KSP2 241409Z 36012KT 04/M03 A3014 RMK A01 T00401032  RH  060%=      5-min Rain = 0
KSP2 241410Z 35011KT 04/M03 A3014 RMK A01 T00401031  RH  060%=      5-min Rain = 0
KSP2 241411Z 35012KT 04/M03 A3014 RMK A01 T00401031  RH  060%=      5-min Rain = 0
KSP2 241412Z 36013KT 04/M03 A3014 RMK A01 T00411031  RH  059%=      5-min Rain = 0
KSP2 241413Z 00013KT 04/M03 A3014 RMK A01 T00411031  RH  059%=      5-min Rain = 0
KSP2 241414Z 00015KT 04/M03 A3014 RMK A01 T00411031  RH  059%=      5-min Rain = 0
KSP2 241415Z 35014KT 04/M03 A3014 RMK A01 T00421031  RH  059%=      5-min Rain = 0
KSP2 241416Z 36013KT 04/M03 A3014 RMK A01 T00421030  RH  059%=      5-min Rain = 0
KSP2 241417Z 35013KT 04/M03 A3014 RMK A01 T00431030  RH  059%=      5-min Rain = 0
KSP2 241418Z 35014KT 04/M03 A3014 RMK A01 T00431030  RH  059%=      5-min Rain = 0
KSP2 241419Z 36015KT 04/M03 A3014 RMK A01 T00431031  RH  059%=      5-min Rain = 0
KSP2 241420Z 36014KT 04/M03 A3014 RMK A01 T00431031  RH  059%=      5-min Rain = 0
KSP2 241421Z 36015KT 04/M03 A3015 RMK A01 T00431031  RH  059%=      5-min Rain = 0
KSP2 241422Z 36015KT 04/M03 A3015 RMK A01 T00431030  RH  059%=      5-min Rain = 0
KSP2 241423Z 36016KT 04/M03 A3015 RMK A01 T00441031  RH  058%=      5-min Rain = 0
KSP2 241424Z 36016KT 04/M03 A3015 RMK A01 T00441031  RH  058%=      5-min Rain = 0
KSP2 241425Z 35015KT 04/M03 A3015 RMK A01 T00441031  RH  058%=      5-min Rain = 0
KSP2 241426Z 35014KT 05/M03 A3015 RMK A01 T00451030  RH  058%=      5-min Rain = 0
KSP2 241427Z 35015KT 05/M03 A3015 RMK A01 T00451031  RH  058%=      5-min Rain = 0
KSP2 241428Z 35014G20KT 05/M03 A3015 RMK A01 T00461030  RH  058%=      5-min Rain = 0
KSP2 241429Z 36016KT 05/M03 A3015 RMK A01 T00461031  RH  057%=      5-min Rain = 0
KSP2 241430Z 00017KT 05/M03 A3015 RMK A01 T00461031  RH  057%=      5-min Rain = 0
KSP2 241431Z 00017KT 05/M03 A3015 RMK A01 T00461031  RH  057%=      5-min Rain = 0
KSP2 241432Z 36016KT 05/M03 A3015 RMK A01 T00471031  RH  057%=      5-min Rain = 0
KSP2 241433Z 36018KT 05/M03 A3015 RMK A01 T00471032  RH  056%=      5-min Rain = 0
KSP2 241434Z 35015KT 05/M03 A3015 RMK A01 T00471033  RH  056%=      5-min Rain = 0
KSP2 241435Z 35016KT 05/M03 A3015 RMK A01 T00481032  RH  056%=      5-min Rain = 0
KSP2 241436Z 35018G23KT 05/M03 A3015 RMK A01 T00491032  RH  056%=      5-min Rain = 0
KSP2 241437Z 35016KT 05/M03 A3015 RMK A01 T00491033  RH  055%=      5-min Rain = 0
KSP2 241438Z 01021KT 05/M03 A3015 RMK A01 T00481034  RH  055%=      5-min Rain = 0
KSP2 241439Z 36017KT 05/M03 A3016 RMK A01 T00481034  RH  055%=      5-min Rain = 0
KSP2 241440Z 36017KT 05/M03 A3016 RMK A01 T00481034  RH  055%=      5-min Rain = 0
KSP2 241441Z 00017KT 05/M03 A3016 RMK A01 T00481034  RH  055%=      5-min Rain = 0
KSP2 241442Z 00016KT 05/M03 A3016 RMK A01 T00491034  RH  055%=      5-min Rain = 0
KSP2 241443Z 00018KT 05/M03 A3016 RMK A01 T00511033  RH  055%=      5-min Rain = 0
KSP2 241444Z 00020KT 05/M04 A3016 RMK A01 T00511035  RH  054%=      5-min Rain = 0
KSP2 241445Z 36019KT 05/M04 A3016 RMK A01 T00511035  RH  054%=      5-min Rain = 0
KSP2 241446Z 36017KT 05/M04 A3016 RMK A01 T00501036  RH  054%=      5-min Rain = 0
KSP2 241447Z 36019KT 05/M04 A3016 RMK A01 T00501035  RH  054%=      5-min Rain = 0
KSP2 241448Z 36018KT 05/M04 A3016 RMK A01 T00501036  RH  054%=      5-min Rain = 0
KSP2 241449Z 00017KT 05/M04 A3016 RMK A01 T00501036  RH  054%=      5-min Rain = 0
KSP2 241450Z 35017KT 05/M04 A3016 RMK A01 T00511036  RH  054%=      5-min Rain = 0
KSP2 241451Z 36016G22KT 05/M04 A3016 RMK A01 T00511036  RH  053%=      5-min Rain = 0
KSP2 241452Z 00020KT 05/M04 A3016 RMK A01 T00511037  RH  053%=      5-min Rain = 0
KSP2 241453Z 01021KT 05/M04 A3016 RMK A01 T00511038  RH  053%=      5-min Rain = 0
KSP2 241454Z 01019KT 05/M04 A3016 RMK A01 T00511038  RH  053%=      5-min Rain = 0
KSP2 241455Z 00018KT 05/M04 A3016 RMK A01 T00501039  RH  052%=      5-min Rain = 0
KSP2 241456Z 36015KT 05/M04 A3016 RMK A01 T00501038  RH  053%=      5-min Rain = 0
KSP2 241457Z 00020KT 05/M04 A3016 RMK A01 T00521038  RH  053%=      5-min Rain = 0
KSP2 241458Z 00019KT 05/M04 A3016 RMK A01 T00511039  RH  052%=      5-min Rain = 0
KSP2 241459Z 35020KT 05/M04 A3017 RMK A01 T00501039  RH  052%=      5-min Rain = 0
KSP2 241500Z 00019KT 05/M04 A3017 RMK A01 T00511040  RH  052%=      5-min Rain = 0
KSP2 241501Z 00014G19KT 05/M04 A3017 RMK A01 T00511039  RH  052%=      5-min Rain = 0
KSP2 241502Z 00015KT 05/M04 A3017 RMK A01 T00531037  RH  052%=      5-min Rain = 0
KSP2 241503Z 01016KT 06/M04 A3017 RMK A01 T00561037  RH  051%=      5-min Rain = 0
KSP2 241504Z 01020KT 06/M04 A3017 RMK A01 T00561039  RH  050%=      5-min Rain = 0
KSP2 241505Z 01018KT 05/M04 A3017 RMK A01 T00541040  RH  051%=      5-min Rain = 0
KSP2 241506Z 00019KT 05/M04 A3017 RMK A01 T00541039  RH  051%=      5-min Rain = 0
KSP2 241507Z 36022KT 05/M04 A3017 RMK A01 T00541041  RH  050%=      5-min Rain = 0
KSP2 241508Z 36018KT 05/M04 A3017 RMK A01 T00531042  RH  050%=      5-min Rain = 0
KSP2 241509Z 00017KT 05/M04 A3017 RMK A01 T00531041  RH  051%=      5-min Rain = 0
KSP2 241510Z 00015KT 06/M04 A3017 RMK A01 T00551040  RH  050%=      5-min Rain = 0
KSP2 241511Z 36018G23KT 06/M04 A3017 RMK A01 T00561040  RH  050%=      5-min Rain = 0
KSP2 241512Z 00020KT 06/M04 A3017 RMK A01 T00561042  RH  049%=      5-min Rain = 0
KSP2 241513Z 00018KT 06/M04 A3017 RMK A01 T00551042  RH  050%=      5-min Rain = 0
KSP2 241514Z 01018KT 06/M04 A3017 RMK A01 T00551042  RH  050%=      5-min Rain = 0
KSP2 241515Z 01018KT 06/M04 A3017 RMK A01 T00561042  RH  049%=      5-min Rain = 0
KSP2 241516Z 01016KT 06/M04 A3017 RMK A01 T00561042  RH  049%=      5-min Rain = 0
KSP2 241517Z 36017KT 06/M04 A3017 RMK A01 T00571041  RH  049%=      5-min Rain = 0
KSP2 241518Z 36020KT 06/M04 A3018 RMK A01 T00571042  RH  049%=      5-min Rain = 0
KSP2 241519Z 36015KT 06/M04 A3018 RMK A01 T00571043  RH  048%=      5-min Rain = 0
KSP2 241520Z 01018KT 06/M04 A3018 RMK A01 T00571042  RH  049%=      5-min Rain = 0
KSP2 241521Z 01016KT 06/M04 A3018 RMK A01 T00581043  RH  048%=      5-min Rain = 0
KSP2 241522Z 00016KT 06/M04 A3018 RMK A01 T00581042  RH  048%=      5-min Rain = 0
KSP2 241523Z 00018KT 06/M04 A3018 RMK A01 T00591042  RH  048%=      5-min Rain = 0
KSP2 241524Z 00018KT 06/M04 A3018 RMK A01 T00591043  RH  048%=      5-min Rain = 0
KSP2 241525Z 00018KT 06/M04 A3018 RMK A01 T00591044  RH  048%=      5-min Rain = 0
KSP2 241526Z 35016KT 06/M04 A3019 RMK A01 T00591044  RH  047%=      5-min Rain = 0
KSP2 241527Z 36018KT 06/M04 A3019 RMK A01 T00591044  RH  048%=      5-min Rain = 0
KSP2 241528Z 36018KT 06/M04 A3019 RMK A01 T00601044  RH  047%=      5-min Rain = 0
KSP2 241529Z 36017KT 06/M04 A3019 RMK A01 T00601044  RH  047%=      5-min Rain = 0
KSP2 241530Z 01015KT 06/M04 A3019 RMK A01 T00601044  RH  047%=      5-min Rain = 0
KSP2 241531Z 00016KT 06/M04 A3019 RMK A01 T00621042  RH  047%=      5-min Rain = 0
KSP2 241532Z 36020KT 06/M04 A3019 RMK A01 T00641043  RH  046%=      5-min Rain = 0
KSP2 241533Z 36020KT 06/M05 A3019 RMK A01 T00621046  RH  046%=      5-min Rain = 0
KSP2 241534Z 36018KT 06/M05 A3019 RMK A01 T00611045  RH  046%=      5-min Rain = 0
KSP2 241535Z 00018KT 06/M05 A3019 RMK A01 T00611045  RH  047%=      5-min Rain = 0
KSP2 241536Z 35016KT 06/M05 A3019 RMK A01 T00611045  RH  047%=      5-min Rain = 0
KSP2 241537Z 35015G20KT 06/M04 A3019 RMK A01 T00631043  RH  047%=      5-min Rain = 0
KSP2 241538Z 00018KT 06/M04 A3019 RMK A01 T00641043  RH  046%=      5-min Rain = 0
KSP2 241539Z 01017KT 06/M04 A3019 RMK A01 T00641044  RH  046%=      5-min Rain = 0
KSP2 241540Z 00018KT 06/M05 A3019 RMK A01 T00641045  RH  046%=      5-min Rain = 0
KSP2 241541Z 36018KT 07/M05 A3019 RMK A01 T00651045  RH  045%=      5-min Rain = 0
KSP2 241542Z 36018KT 06/M05 A3019 RMK A01 T00641045  RH  045%=      5-min Rain = 0
KSP2 241543Z 36018KT 06/M05 A3019 RMK A01 T00641046  RH  045%=      5-min Rain = 0
KSP2 241544Z 00021KT 06/M05 A3019 RMK A01 T00641046  RH  045%=      5-min Rain = 0
KSP2 241545Z 01020KT 06/M05 A3018 RMK A01 T00631047  RH  045%=      5-min Rain = 0
KSP2 241546Z 36015KT 06/M05 A3019 RMK A01 T00631045  RH  046%=      5-min Rain = 0
KSP2 241547Z 36015KT 07/M04 A3019 RMK A01 T00671043  RH  046%=      5-min Rain = 0
KSP2 241548Z 01016KT 07/M04 A3018 RMK A01 T00691044  RH  045%=      5-min Rain = 0
KSP2 241549Z 01017KT 07/M04 A3018 RMK A01 T00691044  RH  044%=      5-min Rain = 0
KSP2 241550Z 01016KT 07/M05 A3018 RMK A01 T00691045  RH  044%=      5-min Rain = 0
KSP2 241551Z 01017KT 07/M05 A3018 RMK A01 T00681045  RH  044%=      5-min Rain = 0
KSP2 241552Z 01017KT 07/M05 A3018 RMK A01 T00691045  RH  044%=      5-min Rain = 0
KSP2 241553Z 01015KT 07/M05 A3018 RMK A01 T00691045  RH  044%=      5-min Rain = 0
KSP2 241554Z 01015KT 07/M05 A3019 RMK A01 T00691045  RH  044%=      5-min Rain = 0
KSP2 241555Z 01016KT 07/M05 A3019 RMK A01 T00691045  RH  044%=      5-min Rain = 0
KSP2 241556Z 36018KT 07/M05 A3019 RMK A01 T00691045  RH  044%=      5-min Rain = 0
KSP2 241557Z 00020KT 07/M05 A3019 RMK A01 T00681046  RH  044%=      5-min Rain = 0
KSP2 241558Z 00017KT 07/M05 A3019 RMK A01 T00671046  RH  044%=      5-min Rain = 0
KSP2 241559Z 36017KT 07/M05 A3019 RMK A01 T00671046  RH  044%=      5-min Rain = 0
KSP2 241600Z 01014KT 07/M05 A3019 RMK A01 T00681045  RH  044%=      5-min Rain = 0
KSP2 241601Z 00014KT 07/M04 A3019 RMK A01 T00691044  RH  044%=      5-min Rain = 0
KSP2 241602Z 00014KT 07/M04 A3019 RMK A01 T00721042  RH  044%=      5-min Rain = 0
KSP2 241603Z 36016KT 07/M04 A3019 RMK A01 T00731044  RH  043%=      5-min Rain = 0
KSP2 241604Z 00016KT 07/M05 A3019 RMK A01 T00711045  RH  044%=      5-min Rain = 0
KSP2 241605Z 01016KT 07/M04 A3019 RMK A01 T00711044  RH  044%=      5-min Rain = 0
KSP2 241606Z 02014KT 07/M04 A3019 RMK A01 T00721043  RH  044%=      5-min Rain = 0
KSP2 241607Z 01017KT 08/M04 A3019 RMK A01 T00751043  RH  043%=      5-min Rain = 0
KSP2 241608Z 01018KT 07/M04 A3019 RMK A01 T00741044  RH  043%=      5-min Rain = 0
KSP2 241609Z 02015KT 07/M04 A3019 RMK A01 T00731044  RH  043%=      5-min Rain = 0
KSP2 241610Z 02019KT 07/M04 A3019 RMK A01 T00741044  RH  043%=      5-min Rain = 0
KSP2 241611Z 02015KT 07/M05 A3019 RMK A01 T00731045  RH  043%=      5-min Rain = 0
KSP2 241612Z 02014KT 07/M05 A3019 RMK A01 T00721045  RH  043%=      5-min Rain = 0
KSP2 241613Z 01014G19KT 07/M04 A3019 RMK A01 T00731043  RH  043%=      5-min Rain = 0
KSP2 241614Z 02013G18KT 08/M04 A3019 RMK A01 T00751042  RH  043%=      5-min Rain = 0
KSP2 241615Z 02015G20KT 08/M04 A3019 RMK A01 T00771042  RH  042%=      5-min Rain = 0
KSP2 241616Z 01019KT 08/M04 A3019 RMK A01 T00771043  RH  042%=      5-min Rain = 0
KSP2 241617Z 01016KT 08/M04 A3019 RMK A01 T00751044  RH  042%=      5-min Rain = 0
KSP2 241618Z 01015KT 07/M04 A3019 RMK A01 T00731044  RH  043%=      5-min Rain = 0
KSP2 241619Z 02016KT 08/M04 A3019 RMK A01 T00751043  RH  043%=      5-min Rain = 0
KSP2 241620Z 02014KT 08/M04 A3019 RMK A01 T00751044  RH  043%=      5-min Rain = 0
KSP2 241621Z 02015KT 07/M05 A3019 RMK A01 T00741045  RH  043%=      5-min Rain = 0
KSP2 241622Z 01017KT 07/M04 A3019 RMK A01 T00741043  RH  043%=      5-min Rain = 0
KSP2 241623Z 01017KT 07/M04 A3019 RMK A01 T00741044  RH  043%=      5-min Rain = 0
KSP2 241624Z 00016KT 07/M04 A3019 RMK A01 T00741044  RH  043%=      5-min Rain = 0
KSP2 241625Z 01016KT 08/M04 A3019 RMK A01 T00761043  RH  043%=      5-min Rain = 0
KSP2 241626Z 01014G19KT 08/M04 A3019 RMK A01 T00751044  RH  043%=      5-min Rain = 0
KSP2 241627Z 01012KT 08/M04 A3019 RMK A01 T00771042  RH  043%=      5-min Rain = 0
KSP2 241628Z 01014KT 08/M04 A3019 RMK A01 T00811040  RH  042%=      5-min Rain = 0
KSP2 241629Z 01015KT 08/M04 A3019 RMK A01 T00821041  RH  041%=      5-min Rain = 0
KSP2 241630Z 02012G17KT 08/M04 A3019 RMK A01 T00801043  RH  042%=      5-min Rain = 0
KSP2 241631Z 01011KT 08/M04 A3019 RMK A01 T00801042  RH  042%=      5-min Rain = 0
KSP2 241632Z 00013G18KT 08/M04 A3019 RMK A01 T00791043  RH  042%=      5-min Rain = 0
KSP2 241633Z 01015KT 08/M04 A3019 RMK A01 T00791042  RH  042%=      5-min Rain = 0
KSP2 241634Z 00015KT 08/M04 A3019 RMK A01 T00801043  RH  042%=      5-min Rain = 0
KSP2 241635Z 01015KT 08/M04 A3019 RMK A01 T00801043  RH  041%=      5-min Rain = 0
KSP2 241636Z 02013KT 08/M04 A3019 RMK A01 T00791044  RH  042%=      5-min Rain = 0
KSP2 241637Z 01014KT 08/M04 A3019 RMK A01 T00801043  RH  041%=      5-min Rain = 0
KSP2 241638Z 02011KT 08/M04 A3019 RMK A01 T00791043  RH  042%=      5-min Rain = 0
KSP2 241639Z 01012KT 08/M04 A3019 RMK A01 T00811040  RH  042%=      5-min Rain = 0
KSP2 241640Z 00012KT 08/M04 A3019 RMK A01 T00831041  RH  041%=      5-min Rain = 0
KSP2 241641Z 02013KT 08/M04 A3019 RMK A01 T00831041  RH  041%=      5-min Rain = 0
KSP2 241642Z 02012KT 09/M04 A3019 RMK A01 T00851039  RH  041%=      5-min Rain = 0
KSP2 241643Z 01011KT 09/M04 A3019 RMK A01 T00861040  RH  041%=      5-min Rain = 0
KSP2 241644Z 01016KT 09/M04 A3019 RMK A01 T00881039  RH  040%=      5-min Rain = 0
KSP2 241645Z 01015KT 09/M04 A3019 RMK A01 T00881042  RH  040%=      5-min Rain = 0
KSP2 241646Z 02011KT 09/M04 A3019 RMK A01 T00871042  RH  040%=      5-min Rain = 0
KSP2 241647Z 02012G17KT 09/M04 A3019 RMK A01 T00871042  RH  040%=      5-min Rain = 0
KSP2 241648Z 01013KT 09/M04 A3019 RMK A01 T00881041  RH  040%=      5-min Rain = 0
KSP2 241649Z 00014G19KT 09/M04 A3019 RMK A01 T00871041  RH  040%=      5-min Rain = 0
KSP2 241650Z 01013KT 09/M04 A3019 RMK A01 T00881042  RH  040%=      5-min Rain = 0
KSP2 241651Z 02013KT 09/M04 A3019 RMK A01 T00881042  RH  040%=      5-min Rain = 0
KSP2 241652Z 03014KT 09/M04 A3019 RMK A01 T00891042  RH  039%=      5-min Rain = 0
KSP2 241653Z 02013G18KT 09/M04 A3019 RMK A01 T00881041  RH  040%=      5-min Rain = 0
KSP2 241654Z 01012KT 09/M04 A3019 RMK A01 T00871043  RH  040%=      5-min Rain = 0
KSP2 241655Z 01012KT 09/M04 A3019 RMK A01 T00861042  RH  040%=      5-min Rain = 0
KSP2 241656Z 01013KT 09/M04 A3019 RMK A01 T00901039  RH  040%=      5-min Rain = 0
KSP2 241657Z 02013KT 09/M04 A3019 RMK A01 T00921041  RH  039%=      5-min Rain = 0
KSP2 241658Z 02011KT 09/M04 A3019 RMK A01 T00911040  RH  039%=      5-min Rain = 0
KSP2 241659Z 02014KT 09/M04 A3019 RMK A01 T00921040  RH  039%=      5-min Rain = 0
KSP2 241700Z 02012KT 09/M04 A3019 RMK A01 T00921041  RH  039%=      5-min Rain = 0
KSP2 241701Z 03012KT 09/M04 A3019 RMK A01 T00931040  RH  039%=      5-min Rain = 0
KSP2 241702Z 02012KT 09/M04 A3019 RMK A01 T00931040  RH  039%=      5-min Rain = 0
KSP2 241703Z 03011KT 09/M04 A3019 RMK A01 T00921040  RH  039%=      5-min Rain = 0
KSP2 241704Z 04013KT 09/M04 A3019 RMK A01 T00931040  RH  039%=      5-min Rain = 0
KSP2 241705Z 04010KT 09/M04 A3019 RMK A01 T00931041  RH  039%=      5-min Rain = 0
KSP2 241706Z 03011KT 09/M04 A3019 RMK A01 T00921040  RH  039%=      5-min Rain = 0
KSP2 241707Z 03011KT 09/M04 A3019 RMK A01 T00921040  RH  039%=      5-min Rain = 0
KSP2 241708Z 03011KT 09/M04 A3019 RMK A01 T00941038  RH  039%=      5-min Rain = 0
KSP2 241709Z 04010KT 10/M04 A3019 RMK A01 T00951040  RH  038%=      5-min Rain = 0
KSP2 241710Z 03010KT 09/M04 A3019 RMK A01 T00921040  RH  039%=      5-min Rain = 0
KSP2 241711Z 03012KT 10/M04 A3019 RMK A01 T00951037  RH  039%=      5-min Rain = 0
KSP2 241712Z 03009KT 10/M04 A3019 RMK A01 T00961039  RH  038%=      5-min Rain = 0
KSP2 241713Z 02010KT 10/M04 A3019 RMK A01 T00971040  RH  038%=      5-min Rain = 0
KSP2 241714Z 02013KT 10/M04 A3019 RMK A01 T00961038  RH  039%=      5-min Rain = 0
KSP2 241715Z 02014KT 10/M04 A3019 RMK A01 T00981039  RH  038%=      5-min Rain = 0
KSP2 241716Z 01011KT 10/M04 A3019 RMK A01 T00951041  RH  038%=      5-min Rain = 0
KSP2 241717Z 02010KT 10/M04 A3019 RMK A01 T00951039  RH  039%=      5-min Rain = 0
KSP2 241718Z 03011KT 10/M04 A3019 RMK A01 T00971039  RH  038%=      5-min Rain = 0
KSP2 241719Z 04010KT 10/M04 A3019 RMK A01 T00981038  RH  038%=      5-min Rain = 0
KSP2 241720Z 02009KT 10/M04 A3019 RMK A01 T00991037  RH  038%=      5-min Rain = 0
KSP2 241721Z 02010KT 10/M04 A3019 RMK A01 T01021036  RH  038%=      5-min Rain = 0
KSP2 241722Z 03013KT 10/M04 A3019 RMK A01 T01031038  RH  037%=      5-min Rain = 0
KSP2 241723Z 04010KT 10/M04 A3019 RMK A01 T00991041  RH  037%=      5-min Rain = 0
KSP2 241724Z 03009KT 10/M04 A3019 RMK A01 T00981040  RH  038%=      5-min Rain = 0
KSP2 241725Z 02011G16KT 10/M04 A3018 RMK A01 T00971040  RH  038%=      5-min Rain = 0
KSP2 241726Z 01012KT 10/M04 A3018 RMK A01 T00961041  RH  038%=      5-min Rain = 0
KSP2 241727Z 00012KT 10/M04 A3019 RMK A01 T00951040  RH  038%=      5-min Rain = 0
KSP2 241728Z 02010KT 10/M04 A3019 RMK A01 T00951040  RH  038%=      5-min Rain = 0
KSP2 241729Z 02010KT 10/M04 A3019 RMK A01 T00971038  RH  038%=      5-min Rain = 0
KSP2 241730Z 01009KT 10/M04 A3019 RMK A01 T00981039  RH  038%=      5-min Rain = 0
KSP2 241731Z 00011KT 10/M04 A3019 RMK A01 T01001039  RH  038%=      5-min Rain = 0
KSP2 241732Z 00010KT 10/M04 A3019 RMK A01 T00981039  RH  038%=      5-min Rain = 0
KSP2 241733Z 35013KT 10/M04 A3019 RMK A01 T01031037  RH  037%=      5-min Rain = 0
KSP2 241734Z 01013KT 10/M04 A3019 RMK A01 T01031038  RH  037%=      5-min Rain = 0
KSP2 241735Z 02011KT 10/M04 A3019 RMK A01 T01041040  RH  036%=      5-min Rain = 0
KSP2 241736Z 04010KT 10/M04 A3019 RMK A01 T01031040  RH  037%=      5-min Rain = 0
KSP2 241737Z 03012KT 10/M04 A3019 RMK A01 T01031039  RH  037%=      5-min Rain = 0
KSP2 241738Z 03008KT 10/M04 A3019 RMK A01 T01011041  RH  037%=      5-min Rain = 0
KSP2 241739Z 02007KT 10/M04 A3019 RMK A01 T01011038  RH  037%=      5-min Rain = 0
KSP2 241740Z 01006KT 10/M04 A3019 RMK A01 T01021038  RH  037%=      5-min Rain = 0
KSP2 241741Z 01010KT 10/M04 A3019 RMK A01 T01031037  RH  037%=      5-min Rain = 0
KSP2 241742Z 01010KT 10/M04 A3019 RMK A01 T01041038  RH  037%=      5-min Rain = 0
KSP2 241743Z 02007KT 10/M04 A3019 RMK A01 T01031036  RH  037%=      5-min Rain = 0
KSP2 241744Z 03008KT 11/M04 A3019 RMK A01 T01061037  RH  036%=      5-min Rain = 0
KSP2 241745Z 04007KT 10/M04 A3019 RMK A01 T01041039  RH  036%=      5-min Rain = 0
KSP2 241746Z 02009G14KT 10/M04 A3019 RMK A01 T01011040  RH  037%=      5-min Rain = 0
KSP2 241747Z 02009KT 10/M04 A3019 RMK A01 T01021038  RH  037%=      5-min Rain = 0
KSP2 241748Z 02011KT 10/M04 A3019 RMK A01 T01041039  RH  036%=      5-min Rain = 0
KSP2 241749Z 02008KT 10/M04 A3019 RMK A01 T01021041  RH  036%=      5-min Rain = 0
KSP2 241750Z 01009KT 10/M04 A3019 RMK A01 T01011040  RH  037%=      5-min Rain = 0
KSP2 241751Z 00007KT 10/M04 A3019 RMK A01 T01011038  RH  037%=      5-min Rain = 0
KSP2 241752Z 02006KT 10/M04 A3019 RMK A01 T01031038  RH  037%=      5-min Rain = 0
KSP2 241753Z 04008KT 11/M03 A3019 RMK A01 T01061034  RH  037%=      5-min Rain = 0
KSP2 241754Z 03008KT 11/M03 A3019 RMK A01 T01131034  RH  036%=      5-min Rain = 0
KSP2 241755Z 04009KT 12/M04 A3019 RMK A01 T01151036  RH  034%=      5-min Rain = 0
KSP2 241756Z 03013KT 11/M04 A3019 RMK A01 T01121040  RH  034%=      5-min Rain = 0
KSP2 241757Z 04010KT 11/M04 A3019 RMK A01 T01071042  RH  035%=      5-min Rain = 0
KSP2 241758Z 05006KT 11/M04 A3019 RMK A01 T01051040  RH  036%=      5-min Rain = 0
KSP2 241759Z 02007KT 11/M04 A3018 RMK A01 T01051039  RH  036%=      5-min Rain = 0
KSP2 241800Z 02013KT 11/M04 A3018 RMK A01 T01091036  RH  036%=      5-min Rain = 0
KSP2 241801Z 03012KT 11/M04 A3018 RMK A01 T01091040  RH  035%=      5-min Rain = 0
KSP2 241802Z 03011KT 11/M04 A3019 RMK A01 T01061042  RH  035%=      5-min Rain = 0
KSP2 241803Z 04007KT 10/M04 A3019 RMK A01 T01021042  RH  036%=      5-min Rain = 0
KSP2 241804Z 05006KT 10/M04 A3019 RMK A01 T01031040  RH  036%=      5-min Rain = 0
KSP2 241805Z 04006KT 10/M04 A3018 RMK A01 T01041042  RH  036%=      5-min Rain = 0
KSP2 241806Z 03009KT 10/M04 A3018 RMK A01 T01031041  RH  036%=      5-min Rain = 0
KSP2 241807Z 00009KT 11/M04 A3018 RMK A01 T01071037  RH  036%=      5-min Rain = 0
KSP2 241808Z 02007KT 11/M04 A3018 RMK A01 T01091039  RH  035%=      5-min Rain = 0
KSP2 241809Z 01007KT 11/M04 A3018 RMK A01 T01081041  RH  035%=      5-min Rain = 0
KSP2 241810Z 03011KT 11/M04 A3018 RMK A01 T01071039  RH  036%=      5-min Rain = 0
KSP2 241811Z 03009KT 11/M04 A3018 RMK A01 T01111040  RH  034%=      5-min Rain = 0
KSP2 241812Z 03009KT 12/M04 A3018 RMK A01 T01161039  RH  034%=      5-min Rain = 0
KSP2 241813Z 03009KT 12/M04 A3018 RMK A01 T01151044  RH  032%=      5-min Rain = 0
KSP2 241814Z 06012KT 11/M04 A3018 RMK A01 T01131043  RH  033%=      5-min Rain = 0
KSP2 241815Z 06013KT 11/M05 A3018 RMK A01 T01131045  RH  033%=      5-min Rain = 0
KSP2 241816Z 05011KT 11/M05 A3018 RMK A01 T01121045  RH  033%=      5-min Rain = 0
KSP2 241817Z 04011KT 11/M05 A3018 RMK A01 T01131045  RH  033%=      5-min Rain = 0
KSP2 241818Z 03011KT 11/M05 A3018 RMK A01 T01121045  RH  033%=      5-min Rain = 0
KSP2 241819Z 03009KT 11/M05 A3018 RMK A01 T01111045  RH  033%=      5-min Rain = 0
KSP2 241820Z 03009KT 11/M04 A3018 RMK A01 T01111044  RH  033%=      5-min Rain = 0
KSP2 241821Z 05011KT 11/M05 A3018 RMK A01 T01111045  RH  033%=      5-min Rain = 0
KSP2 241822Z 06012KT 11/M05 A3018 RMK A01 T01121048  RH  032%=      5-min Rain = 0
KSP2 241823Z 05011KT 11/M05 A3018 RMK A01 T01141047  RH  032%=      5-min Rain = 0
KSP2 241824Z 05011KT 12/M05 A3018 RMK A01 T01151047  RH  032%=      5-min Rain = 0
KSP2 241825Z 04012KT 12/M05 A3018 RMK A01 T01151046  RH  032%=      5-min Rain = 0
KSP2 241826Z 04009KT 12/M05 A3018 RMK A01 T01151047  RH  032%=      5-min Rain = 0
KSP2 241827Z 05008KT 11/M05 A3018 RMK A01 T01141046  RH  032%=      5-min Rain = 0
KSP2 241828Z 04011KT 12/M04 A3018 RMK A01 T01191044  RH  032%=      5-min Rain = 0
KSP2 241829Z 03013KT 12/M05 A3017 RMK A01 T01231047  RH  030%=      5-min Rain = 0
KSP2 241830Z 04009KT 12/M05 A3018 RMK A01 T01181049  RH  031%=      5-min Rain = 0
KSP2 241831Z 05008KT 12/M05 A3018 RMK A01 T01181046  RH  031%=      5-min Rain = 0
KSP2 241832Z 04010KT 12/M04 A3017 RMK A01 T01191043  RH  032%=      5-min Rain = 0
KSP2 241833Z 03010KT 12/M04 A3017 RMK A01 T01211043  RH  032%=      5-min Rain = 0
KSP2 241834Z 04011KT 12/M04 A3017 RMK A01 T01201042  RH  032%=      5-min Rain = 0
KSP2 241835Z 05009KT 12/M04 A3017 RMK A01 T01211042  RH  032%=      5-min Rain = 0
KSP2 241836Z 06008KT 12/M04 A3017 RMK A01 T01211041  RH  032%=      5-min Rain = 0
KSP2 241837Z 05012KT 12/M04 A3017 RMK A01 T01211042  RH  032%=      5-min Rain = 0
KSP2 241838Z 05011KT 12/M05 A3017 RMK A01 T01171045  RH  032%=      5-min Rain = 0
KSP2 241839Z 03011G18KT 12/M05 A3017 RMK A01 T01171045  RH  032%=      5-min Rain = 0
KSP2 241840Z 05009KT 12/M05 A3017 RMK A01 T01191045  RH  031%=      5-min Rain = 0
KSP2 241841Z 02011KT 12/M05 A3017 RMK A01 T01191045  RH  031%=      5-min Rain = 0
KSP2 241842Z 03010KT 12/M05 A3017 RMK A01 T01211045  RH  031%=      5-min Rain = 0
KSP2 241843Z 02011G16KT 12/M05 A3017 RMK A01 T01191047  RH  031%=      5-min Rain = 0
KSP2 241844Z 04013KT 12/M05 A3017 RMK A01 T01191048  RH  031%=      5-min Rain = 0
KSP2 241845Z 03011KT 12/M05 A3016 RMK A01 T01201045  RH  031%=      5-min Rain = 0
KSP2 241846Z 05010KT 12/M05 A3016 RMK A01 T01191046  RH  031%=      5-min Rain = 0
KSP2 241847Z 04010KT 12/M05 A3016 RMK A01 T01181046  RH  031%=      5-min Rain = 0
KSP2 241848Z 03014KT 12/M05 A3016 RMK A01 T01171051  RH  030%=      5-min Rain = 0
KSP2 241849Z 02012KT 12/M05 A3016 RMK A01 T01151053  RH  030%=      5-min Rain = 0
KSP2 241850Z 04013KT 11/M05 A3016 RMK A01 T01141050  RH  031%=      5-min Rain = 0
KSP2 241851Z 04010KT 12/M05 A3016 RMK A01 T01151048  RH  032%=      5-min Rain = 0
KSP2 241852Z 04009KT 12/M05 A3016 RMK A01 T01161046  RH  032%=      5-min Rain = 0
KSP2 241853Z 03008KT 12/M05 A3016 RMK A01 T01161045  RH  032%=      5-min Rain = 0
KSP2 241854Z 04011KT 12/M05 A3016 RMK A01 T01171046  RH  032%=      5-min Rain = 0
KSP2 241855Z 05012KT 12/M05 A3016 RMK A01 T01171050  RH  031%=      5-min Rain = 0
KSP2 241856Z 06011KT 12/M05 A3016 RMK A01 T01191048  RH  031%=      5-min Rain = 0
KSP2 241857Z 04011KT 12/M05 A3016 RMK A01 T01201048  RH  030%=      5-min Rain = 0
KSP2 241858Z 03010KT 12/M05 A3016 RMK A01 T01181047  RH  031%=      5-min Rain = 0
KSP2 241859Z 05009KT 12/M05 A3016 RMK A01 T01181046  RH  031%=      5-min Rain = 0
KSP2 241900Z 04009KT 12/M05 A3016 RMK A01 T01191048  RH  031%=      5-min Rain = 0
KSP2 241901Z 06010KT 12/M05 A3016 RMK A01 T01191048  RH  031%=      5-min Rain = 0
KSP2 241902Z 05009KT 12/M05 A3016 RMK A01 T01211051  RH  030%=      5-min Rain = 0
KSP2 241903Z 03009KT 12/M05 A3016 RMK A01 T01231048  RH  030%=      5-min Rain = 0
KSP2 241904Z 04011KT 12/M05 A3016 RMK A01 T01241046  RH  030%=      5-min Rain = 0
KSP2 241905Z 05009KT 12/M05 A3016 RMK A01 T01231049  RH  030%=      5-min Rain = 0
KSP2 241906Z 04011KT 12/M05 A3016 RMK A01 T01221047  RH  030%=      5-min Rain = 0
KSP2 241907Z 03009KT 12/M05 A3016 RMK A01 T01221046  RH  031%=      5-min Rain = 0
KSP2 241908Z 04010KT 12/M05 A3016 RMK A01 T01201047  RH  031%=      5-min Rain = 0
KSP2 241909Z 04011KT 12/M05 A3015 RMK A01 T01211045  RH  031%=      5-min Rain = 0
KSP2 241910Z 05009KT 12/M05 A3015 RMK A01 T01231048  RH  030%=      5-min Rain = 0
KSP2 241911Z 03013KT 13/M05 A3015 RMK A01 T01251049  RH  029%=      5-min Rain = 0
KSP2 241912Z 03013KT 13/M06 A3015 RMK A01 T01261058  RH  027%=      5-min Rain = 0
KSP2 241913Z 05014KT 13/M06 A3015 RMK A01 T01251059  RH  027%=      5-min Rain = 0
KSP2 241914Z 05013KT 13/M06 A3015 RMK A01 T01251056  RH  028%=      5-min Rain = 0
KSP2 241915Z 06010KT 12/M06 A3015 RMK A01 T01221056  RH  028%=      5-min Rain = 0
KSP2 241916Z 05011KT 12/M05 A3015 RMK A01 T01201053  RH  029%=      5-min Rain = 0
KSP2 241917Z 05011KT 12/M05 A3015 RMK A01 T01231052  RH  029%=      5-min Rain = 0
KSP2 241918Z 05011KT 12/M05 A3015 RMK A01 T01211051  RH  030%=      5-min Rain = 0
KSP2 241919Z 02009KT 12/M05 A3015 RMK A01 T01221048  RH  030%=      5-min Rain = 0
KSP2 241920Z 03009KT 12/M05 A3015 RMK A01 T01231048  RH  030%=      5-min Rain = 0
KSP2 241921Z 05007KT 13/M05 A3015 RMK A01 T01251046  RH  030%=      5-min Rain = 0
KSP2 241922Z 03010KT 12/M05 A3015 RMK A01 T01241048  RH  030%=      5-min Rain = 0
KSP2 241923Z 04014KT 13/M05 A3015 RMK A01 T01251050  RH  029%=      5-min Rain = 0
KSP2 241924Z 03013KT 12/M05 A3015 RMK A01 T01231054  RH  029%=      5-min Rain = 0
KSP2 241925Z 03011KT 12/M06 A3015 RMK A01 T01211055  RH  029%=      5-min Rain = 0
KSP2 241926Z 04011G16KT 12/M05 A3015 RMK A01 T01231050  RH  029%=      5-min Rain = 0
KSP2 241927Z 05012KT 13/M05 A3015 RMK A01 T01261050  RH  029%=      5-min Rain = 0
KSP2 241928Z 05008KT 12/M05 A3015 RMK A01 T01221053  RH  029%=      5-min Rain = 0
KSP2 241929Z 04011G17KT 12/M05 A3015 RMK A01 T01221051  RH  029%=      5-min Rain = 0
KSP2 241930Z 04012KT 12/M06 A3015 RMK A01 T01241058  RH  028%=      5-min Rain = 0
KSP2 241931Z 02012KT 12/M06 A3015 RMK A01 T01241057  RH  028%=      5-min Rain = 0
KSP2 241932Z 04014KT 12/M06 A3015 RMK A01 T01241057  RH  028%=      5-min Rain = 0
KSP2 241933Z 04012KT 13/M06 A3014 RMK A01 T01261057  RH  028%=      5-min Rain = 0
KSP2 241934Z 02013KT 13/M06 A3014 RMK A01 T01261056  RH  028%=      5-min Rain = 0
KSP2 241935Z 05012KT 13/M06 A3015 RMK A01 T01261056  RH  028%=      5-min Rain = 0
KSP2 241936Z 05010KT 13/M06 A3015 RMK A01 T01281058  RH  027%=      5-min Rain = 0
KSP2 241937Z 06012KT 13/M06 A3015 RMK A01 T01291060  RH  026%=      5-min Rain = 0
KSP2 241938Z 05009KT 13/M06 A3015 RMK A01 T01271058  RH  027%=      5-min Rain = 0
KSP2 241939Z 05012KT 13/M06 A3015 RMK A01 T01261059  RH  027%=      5-min Rain = 0
KSP2 241940Z 03009KT 13/M06 A3015 RMK A01 T01251056  RH  028%=      5-min Rain = 0
KSP2 241941Z 02011KT 13/M05 A3015 RMK A01 T01291052  RH  028%=      5-min Rain = 0
KSP2 241942Z 03010KT 13/M06 A3015 RMK A01 T01291056  RH  027%=      5-min Rain = 0
KSP2 241943Z 03012KT 13/M06 A3014 RMK A01 T01301055  RH  027%=      5-min Rain = 0
KSP2 241944Z 03010KT 13/M06 A3015 RMK A01 T01301057  RH  027%=      5-min Rain = 0
KSP2 241945Z 03010KT 13/M05 A3014 RMK A01 T01301053  RH  028%=      5-min Rain = 0
KSP2 241946Z 04010KT 13/M05 A3015 RMK A01 T01321051  RH  027%=      5-min Rain = 0
KSP2 241947Z 05011KT 13/M05 A3015 RMK A01 T01321054  RH  027%=      5-min Rain = 0
KSP2 241948Z 06011KT 13/M06 A3015 RMK A01 T01301063  RH  026%=      5-min Rain = 0
KSP2 241949Z 07010KT 13/M06 A3015 RMK A01 T01301061  RH  026%=      5-min Rain = 0
KSP2 241950Z 06007KT 13/M06 A3014 RMK A01 T01301062  RH  026%=      5-min Rain = 0
KSP2 241951Z 06010G15KT 13/M06 A3014 RMK A01 T01311055  RH  027%=      5-min Rain = 0
KSP2 241952Z 05011KT 14/M06 A3014 RMK A01 T01351055  RH  026%=      5-min Rain = 0
KSP2 241953Z 03009KT 14/M06 A3014 RMK A01 T01351059  RH  025%=      5-min Rain = 0
KSP2 241954Z 04014KT 13/M06 A3014 RMK A01 T01311061  RH  026%=      5-min Rain = 0
KSP2 241955Z 05013KT 13/M06 A3014 RMK A01 T01311059  RH  026%=      5-min Rain = 0
KSP2 241956Z 03013KT 13/M06 A3014 RMK A01 T01311061  RH  026%=      5-min Rain = 0
KSP2 241957Z 06012KT 13/M06 A3014 RMK A01 T01321062  RH  025%=      5-min Rain = 0
KSP2 241958Z 05008KT 13/M06 A3014 RMK A01 T01321061  RH  026%=      5-min Rain = 0
KSP2 241959Z 04009KT 13/M07 A3014 RMK A01 T01331065  RH  025%=      5-min Rain = 0
KSP2 242000Z 05010KT 13/M06 A3014 RMK A01 T01311063  RH  025%=      5-min Rain = 0
KSP2 242001Z 05010KT 13/M06 A3014 RMK A01 T01321062  RH  026%=      5-min Rain = 0
KSP2 242002Z 03013KT 13/M06 A3014 RMK A01 T01301061  RH  026%=      5-min Rain = 0
KSP2 242003Z 03011KT 13/M06 A3014 RMK A01 T01311059  RH  026%=      5-min Rain = 0
KSP2 242004Z 04013KT 13/M06 A3014 RMK A01 T01321060  RH  026%=      5-min Rain = 0
KSP2 242005Z 04009KT 13/M06 A3014 RMK A01 T01311059  RH  026%=      5-min Rain = 0
KSP2 242006Z 05009KT 13/M06 A3013 RMK A01 T01321057  RH  026%=      5-min Rain = 0
KSP2 242007Z 06010G15KT 14/M06 A3013 RMK A01 T01351057  RH  026%=      5-min Rain = 0
KSP2 242008Z 05010KT 14/M06 A3013 RMK A01 T01351061  RH  025%=      5-min Rain = 0
KSP2 242009Z 07010KT 13/M06 A3013 RMK A01 T01331060  RH  026%=      5-min Rain = 0
KSP2 242010Z 08008KT 13/M06 A3013 RMK A01 T01321059  RH  026%=      5-min Rain = 0
KSP2 242011Z 07007KT 13/M06 A3013 RMK A01 T01301059  RH  026%=      5-min Rain = 0
KSP2 242012Z 06007G12KT 13/M06 A3013 RMK A01 T01291059  RH  026%=      5-min Rain = 0
KSP2 242013Z 04010G15KT 13/M06 A3013 RMK A01 T01311060  RH  026%=      5-min Rain = 0
KSP2 242014Z 03011KT 13/M06 A3013 RMK A01 T01341064  RH  025%=      5-min Rain = 0
KSP2 242015Z 05013KT 13/M07 A3013 RMK A01 T01341070  RH  023%=      5-min Rain = 0
KSP2 242016Z 04011KT 13/M07 A3013 RMK A01 T01341072  RH  023%=      5-min Rain = 0
KSP2 242017Z 06010KT 13/M08 A3013 RMK A01 T01341076  RH  023%=      5-min Rain = 0
KSP2 242018Z 05011KT 13/M08 A3013 RMK A01 T01321075  RH  023%=      5-min Rain = 0
KSP2 242019Z 04013KT 13/M08 A3013 RMK A01 T01321075  RH  023%=      5-min Rain = 0
KSP2 242020Z 03009KT 13/M08 A3013 RMK A01 T01301081  RH  022%=      5-min Rain = 0
KSP2 242021Z 05009KT 13/M07 A3013 RMK A01 T01301074  RH  023%=      5-min Rain = 0
KSP2 242022Z 04010KT 13/M07 A3013 RMK A01 T01341072  RH  023%=      5-min Rain = 0
KSP2 242023Z 05012G17KT 13/M07 A3013 RMK A01 T01331072  RH  023%=      5-min Rain = 0
KSP2 242024Z 05013KT 13/M07 A3013 RMK A01 T01321072  RH  023%=      5-min Rain = 0
KSP2 242025Z 05010KT 13/M07 A3013 RMK A01 T01321071  RH  024%=      5-min Rain = 0
KSP2 242026Z 05007KT 13/M07 A3013 RMK A01 T01321069  RH  024%=      5-min Rain = 0
KSP2 242027Z 05008KT 13/M07 A3013 RMK A01 T01331068  RH  024%=      5-min Rain = 0
KSP2 242028Z 06012KT 13/M07 A3013 RMK A01 T01341069  RH  024%=      5-min Rain = 0
KSP2 242029Z 06013KT 14/M08 A3013 RMK A01 T01351081  RH  021%=      5-min Rain = 0
KSP2 242030Z 05011KT 13/M09 A3013 RMK A01 T01341085  RH  021%=      5-min Rain = 0
KSP2 242031Z 06010KT 13/M08 A3012 RMK A01 T01341082  RH  021%=      5-min Rain = 0
KSP2 242032Z 07011KT 14/M08 A3012 RMK A01 T01351078  RH  022%=      5-min Rain = 0
KSP2 242033Z 08011KT 14/M08 A3012 RMK A01 T01351075  RH  022%=      5-min Rain = 0
KSP2 242034Z 07010KT 14/M07 A3012 RMK A01 T01371072  RH  023%=      5-min Rain = 0
KSP2 242035Z 06009KT 14/M07 A3012 RMK A01 T01371070  RH  023%=      5-min Rain = 0
KSP2 242036Z 06009KT 14/M07 A3012 RMK A01 T01361068  RH  024%=      5-min Rain = 0
KSP2 242037Z 05009KT 13/M07 A3012 RMK A01 T01331066  RH  024%=      5-min Rain = 0
KSP2 242038Z 07013KT 14/M06 A3012 RMK A01 T01351063  RH  025%=      5-min Rain = 0
KSP2 242039Z 03012KT 14/M07 A3012 RMK A01 T01371066  RH  024%=      5-min Rain = 0
KSP2 242040Z 04014KT 14/M07 A3012 RMK A01 T01371070  RH  023%=      5-min Rain = 0
KSP2 242041Z 03014KT 14/M07 A3012 RMK A01 T01361073  RH  023%=      5-min Rain = 0
KSP2 242042Z 06011KT 14/M07 A3012 RMK A01 T01351072  RH  023%=      5-min Rain = 0
KSP2 242043Z 07011KT 14/M07 A3012 RMK A01 T01351071  RH  023%=      5-min Rain = 0
KSP2 242044Z 05009KT 14/M07 A3012 RMK A01 T01361069  RH  023%=      5-min Rain = 0
KSP2 242045Z 06013G21KT 14/M07 A3012 RMK A01 T01381069  RH  023%=      5-min Rain = 0
KSP2 242046Z 07013KT 14/M07 A3012 RMK A01 T01401069  RH  023%=      5-min Rain = 0
KSP2 242047Z 06012KT 14/M07 A3013 RMK A01 T01391074  RH  022%=      5-min Rain = 0
KSP2 242048Z 04007KT 14/M08 A3012 RMK A01 T01361076  RH  022%=      5-min Rain = 0
KSP2 242049Z 05011KT 14/M08 A3012 RMK A01 T01381075  RH  022%=      5-min Rain = 0
KSP2 242050Z 05010KT 14/M08 A3012 RMK A01 T01391081  RH  021%=      5-min Rain = 0
KSP2 242051Z 05008KT 14/M08 A3012 RMK A01 T01381081  RH  021%=      5-min Rain = 0
KSP2 242052Z 05009KT 14/M08 A3012 RMK A01 T01401083  RH  021%=      5-min Rain = 0
KSP2 242053Z 06011KT 14/M08 A3013 RMK A01 T01411081  RH  021%=      5-min Rain = 0
KSP2 242054Z 06012KT 14/M08 A3013 RMK A01 T01421081  RH  021%=      5-min Rain = 0
KSP2 242055Z 07013KT 14/M08 A3012 RMK A01 T01421077  RH  021%=      5-min Rain = 0
KSP2 242056Z 07013KT 14/M08 A3012 RMK A01 T01431075  RH  021%=      5-min Rain = 0
KSP2 242057Z 07010KT 14/M08 A3012 RMK A01 T01421078  RH  021%=      5-min Rain = 0
KSP2 242058Z 07008KT 14/M08 A3012 RMK A01 T01411077  RH  021%=      5-min Rain = 0
KSP2 242059Z 07011KT 14/M08 A3013 RMK A01 T01421077  RH  021%=      5-min Rain = 0
KSP2 242100Z 08006KT 14/M08 A3012 RMK A01 T01401079  RH  021%=      5-min Rain = 0
KSP2 242101Z 07007KT 14/M08 A3012 RMK A01 T01371080  RH  021%=      5-min Rain = 0
KSP2 242102Z 07005KT 14/M08 A3012 RMK A01 T01361078  RH  022%=      5-min Rain = 0
KSP2 242103Z 08009KT 14/M07 A3012 RMK A01 T01371072  RH  023%=      5-min Rain = 0
KSP2 242104Z 06009KT 14/M07 A3012 RMK A01 T01421070  RH  022%=      5-min Rain = 0
KSP2 242105Z 04010KT 14/M07 A3012 RMK A01 T01411072  RH  022%=      5-min Rain = 0
KSP2 242106Z 05009G15KT 14/M07 A3012 RMK A01 T01401073  RH  022%=      5-min Rain = 0
KSP2 242107Z 06013KT 14/M07 A3012 RMK A01 T01391073  RH  022%=      5-min Rain = 0
KSP2 242108Z 06009G16KT 14/M08 A3012 RMK A01 T01371075  RH  022%=      5-min Rain = 0
KSP2 242109Z 07013KT 14/M07 A3012 RMK A01 T01371073  RH  022%=      5-min Rain = 0
KSP2 242110Z 07010KT 14/M08 A3012 RMK A01 T01391077  RH  022%=      5-min Rain = 0
KSP2 242111Z 06007KT 14/M08 A3012 RMK A01 T01371079  RH  022%=      5-min Rain = 0
KSP2 242112Z 07007KT 14/M08 A3012 RMK A01 T01371078  RH  022%=      5-min Rain = 0
KSP2 242113Z 05007KT 14/M07 A3012 RMK A01 T01411073  RH  022%=      5-min Rain = 0
KSP2 242114Z 05007KT 14/M07 A3012 RMK A01 T01411074  RH  022%=      5-min Rain = 0
KSP2 242115Z 06008KT 14/M07 A3012 RMK A01 T01401071  RH  023%=      5-min Rain = 0
KSP2 242116Z 05010KT 14/M07 A3012 RMK A01 T01411070  RH  023%=      5-min Rain = 0
KSP2 242117Z 04010KT 14/M07 A3012 RMK A01 T01411070  RH  022%=      5-min Rain = 0
KSP2 242118Z 06012KT 14/M07 A3012 RMK A01 T01431071  RH  022%=      5-min Rain = 0
KSP2 242119Z 05012KT 15/M08 A3012 RMK A01 T01451075  RH  021%=      5-min Rain = 0
KSP2 242120Z 05009KT 14/M08 A3012 RMK A01 T01431079  RH  021%=      5-min Rain = 0
KSP2 242121Z 05011KT 14/M08 A3012 RMK A01 T01391081  RH  021%=      5-min Rain = 0
KSP2 242122Z 05015KT 14/M08 A3012 RMK A01 T01381079  RH  021%=      5-min Rain = 0
KSP2 242123Z 06009KT 14/M08 A3012 RMK A01 T01391078  RH  021%=      5-min Rain = 0
KSP2 242124Z 05010KT 14/M08 A3012 RMK A01 T01441076  RH  021%=      5-min Rain = 0
KSP2 242125Z 04009KT 14/M08 A3012 RMK A01 T01441079  RH  021%=      5-min Rain = 0
KSP2 242126Z 03011KT 14/M08 A3012 RMK A01 T01431080  RH  021%=      5-min Rain = 0
KSP2 242127Z 04011KT 14/M08 A3012 RMK A01 T01421079  RH  021%=      5-min Rain = 0
KSP2 242128Z 03011KT 14/M08 A3011 RMK A01 T01421080  RH  021%=      5-min Rain = 0
KSP2 242129Z 03012KT 14/M08 A3012 RMK A01 T01421082  RH  020%=      5-min Rain = 0
KSP2 242130Z 03010KT 14/M08 A3012 RMK A01 T01401083  RH  020%=      5-min Rain = 0
KSP2 242131Z 05013KT 14/M08 A3012 RMK A01 T01411080  RH  021%=      5-min Rain = 0
KSP2 242132Z 07015KT 14/M08 A3012 RMK A01 T01421080  RH  021%=      5-min Rain = 0
KSP2 242133Z 08014KT 14/M08 A3012 RMK A01 T01411081  RH  021%=      5-min Rain = 0
KSP2 242134Z 08013KT 14/M08 A3012 RMK A01 T01411079  RH  021%=      5-min Rain = 0
KSP2 242135Z 08014KT 14/M08 A3012 RMK A01 T01411083  RH  020%=      5-min Rain = 0
KSP2 242136Z 07012KT 14/M08 A3012 RMK A01 T01391082  RH  021%=      5-min Rain = 0
KSP2 242137Z 06010KT 14/M08 A3012 RMK A01 T01391082  RH  021%=      5-min Rain = 0
KSP2 242138Z 05009KT 14/M08 A3012 RMK A01 T01391082  RH  021%=      5-min Rain = 0
KSP2 242139Z 06013KT 14/M08 A3012 RMK A01 T01411078  RH  021%=      5-min Rain = 0
KSP2 242140Z 05012KT 14/M08 A3012 RMK A01 T01421080  RH  021%=      5-min Rain = 0
KSP2 242141Z 05010KT 14/M08 A3012 RMK A01 T01401080  RH  021%=      5-min Rain = 0
KSP2 242142Z 06011KT 14/M08 A3011 RMK A01 T01401080  RH  021%=      5-min Rain = 0
KSP2 242143Z 06011KT 14/M08 A3011 RMK A01 T01411077  RH  021%=      5-min Rain = 0
KSP2 242144Z 08012KT 14/M08 A3011 RMK A01 T01421078  RH  021%=      5-min Rain = 0
KSP2 242145Z 09013KT 14/M08 A3011 RMK A01 T01421077  RH  021%=      5-min Rain = 0
KSP2 242146Z 09013KT 14/M08 A3011 RMK A01 T01411076  RH  021%=      5-min Rain = 0
KSP2 242147Z 08011KT 14/M08 A3011 RMK A01 T01401075  RH  022%=      5-min Rain = 0
KSP2 242148Z 07011KT 14/M07 A3011 RMK A01 T01411074  RH  022%=      5-min Rain = 0
KSP2 242149Z 06012KT 14/M08 A3011 RMK A01 T01431078  RH  021%=      5-min Rain = 0
KSP2 242150Z 05013KT 14/M08 A3011 RMK A01 T01431079  RH  021%=      5-min Rain = 0
KSP2 242151Z 06012G17KT 14/M08 A3011 RMK A01 T01421081  RH  021%=      5-min Rain = 0
KSP2 242152Z 06009KT 14/M08 A3011 RMK A01 T01411080  RH  021%=      5-min Rain = 0
KSP2 242153Z 05008KT 14/M08 A3011 RMK A01 T01411081  RH  021%=      5-min Rain = 0
KSP2 242154Z 05007KT 14/M08 A3011 RMK A01 T01401083  RH  021%=      5-min Rain = 0
KSP2 242155Z 04007KT 14/M08 A3011 RMK A01 T01381081  RH  021%=      5-min Rain = 0
KSP2 242156Z 06007G12KT 14/M08 A3012 RMK A01 T01371079  RH  021%=      5-min Rain = 0
KSP2 242157Z 06009KT 14/M08 A3012 RMK A01 T01391076  RH  022%=      5-min Rain = 0
KSP2 242158Z 08011KT 14/M08 A3012 RMK A01 T01421076  RH  021%=      5-min Rain = 0
KSP2 242159Z 06013KT 14/M08 A3011 RMK A01 T01441080  RH  021%=      5-min Rain = 0
KSP2 242200Z 08014KT 14/M08 A3012 RMK A01 T01421082  RH  020%=      5-min Rain = 0
KSP2 242201Z 08012KT 14/M08 A3012 RMK A01 T01401083  RH  020%=      5-min Rain = 0
KSP2 242202Z 08010KT 14/M08 A3012 RMK A01 T01411082  RH  021%=      5-min Rain = 0
KSP2 242203Z 06010KT 14/M08 A3012 RMK A01 T01431079  RH  021%=      5-min Rain = 0
KSP2 242204Z 06011KT 14/M08 A3012 RMK A01 T01441080  RH  021%=      5-min Rain = 0
KSP2 242205Z 05011KT 14/M08 A3011 RMK A01 T01421081  RH  021%=      5-min Rain = 0
KSP2 242206Z 05007KT 14/M08 A3011 RMK A01 T01391083  RH  021%=      5-min Rain = 0
KSP2 242207Z 06008KT 14/M08 A3012 RMK A01 T01391080  RH  021%=      5-min Rain = 0
KSP2 242208Z 07010KT 14/M08 A3012 RMK A01 T01391081  RH  021%=      5-min Rain = 0
KSP2 242209Z 08012KT 14/M08 A3012 RMK A01 T01401080  RH  021%=      5-min Rain = 0
KSP2 242210Z 08011KT 14/M08 A3012 RMK A01 T01401079  RH  021%=      5-min Rain = 0
KSP2 242211Z 06011KT 14/M08 A3012 RMK A01 T01421080  RH  021%=      5-min Rain = 0
KSP2 242212Z 08008KT 14/M08 A3012 RMK A01 T01421080  RH  021%=      5-min Rain = 0
KSP2 242213Z 08010KT 14/M08 A3011 RMK A01 T01421081  RH  021%=      5-min Rain = 0
KSP2 242214Z 07008KT 14/M08 A3011 RMK A01 T01421081  RH  021%=      5-min Rain = 0
KSP2 242215Z 08009KT 14/M08 A3011 RMK A01 T01391082  RH  021%=      5-min Rain = 0
KSP2 242216Z 08010KT 14/M08 A3011 RMK A01 T01391079  RH  021%=      5-min Rain = 0
KSP2 242217Z 07015KT 14/M08 A3011 RMK A01 T01401078  RH  021%=      5-min Rain = 0
KSP2 242218Z 08009KT 14/M08 A3011 RMK A01 T01391079  RH  021%=      5-min Rain = 0
KSP2 242219Z 08007KT 14/M08 A3011 RMK A01 T01381078  RH  022%=      5-min Rain = 0
KSP2 242220Z 08013KT 14/M08 A3011 RMK A01 T01381077  RH  022%=      5-min Rain = 0
KSP2 242221Z 07014KT 14/M08 A3011 RMK A01 T01401076  RH  022%=      5-min Rain = 0
KSP2 242222Z 08014KT 14/M08 A3011 RMK A01 T01411077  RH  021%=      5-min Rain = 0
KSP2 242223Z 08014KT 14/M08 A3011 RMK A01 T01401076  RH  022%=      5-min Rain = 0
KSP2 242224Z 09013KT 14/M08 A3011 RMK A01 T01411078  RH  021%=      5-min Rain = 0
KSP2 242225Z 08010KT 14/M08 A3011 RMK A01 T01391079  RH  021%=      5-min Rain = 0
KSP2 242226Z 08008KT 14/M08 A3011 RMK A01 T01381078  RH  022%=      5-min Rain = 0
KSP2 242227Z 08009KT 14/M07 A3011 RMK A01 T01401074  RH  022%=      5-min Rain = 0
KSP2 242228Z 07013KT 14/M07 A3011 RMK A01 T01431074  RH  021%=      5-min Rain = 0
KSP2 242229Z 06010KT 14/M08 A3011 RMK A01 T01421078  RH  021%=      5-min Rain = 0
KSP2 242230Z 05009KT 14/M08 A3011 RMK A01 T01391079  RH  021%=      5-min Rain = 0
KSP2 242231Z 07007KT 14/M08 A3011 RMK A01 T01391077  RH  022%=      5-min Rain = 0
KSP2 242232Z 08009KT 14/M07 A3011 RMK A01 T01421074  RH  022%=      5-min Rain = 0
KSP2 242233Z 08012KT 14/M08 A3011 RMK A01 T01431079  RH  021%=      5-min Rain = 0
KSP2 242234Z 08012KT 14/M08 A3011 RMK A01 T01401081  RH  021%=      5-min Rain = 0
KSP2 242235Z 08012KT 14/M08 A3011 RMK A01 T01391080  RH  021%=      5-min Rain = 0
KSP2 242236Z 07009KT 14/M08 A3011 RMK A01 T01371083  RH  021%=      5-min Rain = 0
KSP2 242237Z 08007KT 14/M08 A3011 RMK A01 T01351082  RH  021%=      5-min Rain = 0
KSP2 242238Z 09008KT 14/M08 A3011 RMK A01 T01351080  RH  022%=      5-min Rain = 0
KSP2 242239Z 09009KT 14/M08 A3011 RMK A01 T01371077  RH  022%=      5-min Rain = 0
KSP2 242240Z 09012KT 14/M08 A3011 RMK A01 T01391076  RH  022%=      5-min Rain = 0
KSP2 242241Z 09013KT 14/M08 A3011 RMK A01 T01391079  RH  021%=      5-min Rain = 0
KSP2 242242Z 09013KT 14/M08 A3011 RMK A01 T01371080  RH  021%=      5-min Rain = 0
KSP2 242243Z 09012KT 14/M08 A3011 RMK A01 T01361079  RH  022%=      5-min Rain = 0
KSP2 242244Z 09011KT 14/M08 A3011 RMK A01 T01361078  RH  022%=      5-min Rain = 0
KSP2 242245Z 08013KT 14/M08 A3011 RMK A01 T01351078  RH  022%=      5-min Rain = 0
KSP2 242246Z 08013KT 14/M08 A3011 RMK A01 T01361078  RH  022%=      5-min Rain = 0
KSP2 242247Z 07013KT 14/M08 A3011 RMK A01 T01361078  RH  022%=      5-min Rain = 0
KSP2 242248Z 08011KT 14/M08 A3011 RMK A01 T01351077  RH  022%=      5-min Rain = 0
KSP2 242249Z 09009KT 14/M08 A3011 RMK A01 T01361077  RH  022%=      5-min Rain = 0
KSP2 242250Z 09010KT 14/M08 A3011 RMK A01 T01371077  RH  022%=      5-min Rain = 0
KSP2 242251Z 08008KT 14/M08 A3011 RMK A01 T01361078  RH  022%=      5-min Rain = 0
KSP2 242252Z 08009KT 14/M08 A3011 RMK A01 T01361078  RH  022%=      5-min Rain = 0
KSP2 242253Z 07009KT 14/M08 A3011 RMK A01 T01361076  RH  022%=      5-min Rain = 0
KSP2 242254Z 08010KT 14/M08 A3011 RMK A01 T01371075  RH  022%=      5-min Rain = 0
KSP2 242255Z 07011KT 14/M08 A3011 RMK A01 T01381076  RH  022%=      5-min Rain = 0
KSP2 242256Z 07012KT 14/M08 A3011 RMK A01 T01371078  RH  022%=      5-min Rain = 0
KSP2 242257Z 07010KT 14/M08 A3011 RMK A01 T01351079  RH  022%=      5-min Rain = 0
KSP2 242258Z 08010KT 13/M08 A3011 RMK A01 T01331079  RH  022%=      5-min Rain = 0
KSP2 242259Z 06012KT 13/M08 A3011 RMK A01 T01341076  RH  023%=      5-min Rain = 0
KSP2 242300Z 06012KT 14/M08 A3011 RMK A01 T01351077  RH  022%=      5-min Rain = 0
KSP2 242301Z 06011KT 13/M08 A3011 RMK A01 T01341079  RH  022%=      5-min Rain = 0
KSP2 242302Z 05011KT 13/M08 A3011 RMK A01 T01321079  RH  022%=      5-min Rain = 0
KSP2 242303Z 05009KT 13/M08 A3011 RMK A01 T01311078  RH  022%=      5-min Rain = 0
KSP2 242304Z 05010KT 13/M08 A3011 RMK A01 T01321077  RH  023%=      5-min Rain = 0
KSP2 242305Z 05009KT 13/M08 A3011 RMK A01 T01311078  RH  023%=      5-min Rain = 0
KSP2 242306Z 06009KT 13/M08 A3011 RMK A01 T01311077  RH  023%=      5-min Rain = 0
KSP2 242307Z 07011KT 13/M08 A3011 RMK A01 T01331075  RH  023%=      5-min Rain = 0
KSP2 242308Z 06009KT 13/M08 A3011 RMK A01 T01341076  RH  022%=      5-min Rain = 0
KSP2 242309Z 07010KT 13/M08 A3011 RMK A01 T01341076  RH  022%=      5-min Rain = 0
KSP2 242310Z 07011KT 13/M08 A3011 RMK A01 T01341077  RH  022%=      5-min Rain = 0
KSP2 242311Z 06011KT 13/M08 A3011 RMK A01 T01321078  RH  022%=      5-min Rain = 0
KSP2 242312Z 07012KT 13/M08 A3011 RMK A01 T01321077  RH  023%=      5-min Rain = 0
KSP2 242313Z 07011KT 13/M08 A3011 RMK A01 T01321078  RH  022%=      5-min Rain = 0
KSP2 242314Z 08011KT 13/M08 A3011 RMK A01 T01311078  RH  022%=      5-min Rain = 0
KSP2 242315Z 07010KT 13/M08 A3011 RMK A01 T01311078  RH  023%=      5-min Rain = 0
KSP2 242316Z 07011KT 13/M08 A3011 RMK A01 T01311077  RH  023%=      5-min Rain = 0
KSP2 242317Z 07011KT 13/M08 A3011 RMK A01 T01311078  RH  023%=      5-min Rain = 0
KSP2 242318Z 08013KT 13/M08 A3011 RMK A01 T01301077  RH  023%=      5-min Rain = 0
KSP2 242319Z 08013KT 13/M08 A3011 RMK A01 T01301076  RH  023%=      5-min Rain = 0
KSP2 242320Z 07014KT 13/M08 A3011 RMK A01 T01301077  RH  023%=      5-min Rain = 0
KSP2 242321Z 07011KT 13/M08 A3011 RMK A01 T01281078  RH  023%=      5-min Rain = 0
KSP2 242322Z 08010KT 13/M08 A3011 RMK A01 T01271077  RH  023%=      5-min Rain = 0
KSP2 242323Z 07009KT 13/M08 A3011 RMK A01 T01281075  RH  024%=      5-min Rain = 0
KSP2 242324Z 07010KT 13/M08 A3011 RMK A01 T01281076  RH  023%=      5-min Rain = 0
KSP2 242325Z 07008KT 13/M08 A3012 RMK A01 T01291076  RH  023%=      5-min Rain = 0
KSP2 242326Z 08008KT 13/M08 A3012 RMK A01 T01291076  RH  023%=      5-min Rain = 0
KSP2 242327Z 08007KT 13/M08 A3012 RMK A01 T01291076  RH  023%=      5-min Rain = 0
KSP2 242328Z 07007KT 13/M07 A3012 RMK A01 T01291074  RH  024%=      5-min Rain = 0
KSP2 242329Z 04007KT 13/M07 A3012 RMK A01 T01301074  RH  023%=      5-min Rain = 0
KSP2 242330Z 07009KT 13/M08 A3012 RMK A01 T01311075  RH  023%=      5-min Rain = 0
KSP2 242331Z 07010KT 13/M08 A3012 RMK A01 T01301075  RH  023%=      5-min Rain = 0
KSP2 242332Z 08009KT 13/M07 A3012 RMK A01 T01291074  RH  024%=      5-min Rain = 0
KSP2 242333Z 07011KT 13/M07 A3012 RMK A01 T01291074  RH  024%=      5-min Rain = 0
KSP2 242334Z 07009KT 13/M08 A3012 RMK A01 T01281076  RH  023%=      5-min Rain = 0
KSP2 242335Z 07008KT 13/M08 A3012 RMK A01 T01271076  RH  024%=      5-min Rain = 0
KSP2 242336Z 07010KT 13/M08 A3012 RMK A01 T01271075  RH  024%=      5-min Rain = 0
KSP2 242337Z 06011KT 13/M08 A3012 RMK A01 T01271075  RH  024%=      5-min Rain = 0
KSP2 242338Z 06012KT 13/M08 A3012 RMK A01 T01261075  RH  024%=      5-min Rain = 0
KSP2 242339Z 07010KT 13/M08 A3012 RMK A01 T01261076  RH  024%=      5-min Rain = 0
KSP2 242340Z 06008KT 13/M08 A3012 RMK A01 T01251077  RH  024%=      5-min Rain = 0
KSP2 242341Z 06007KT 13/M08 A3012 RMK A01 T01251076  RH  024%=      5-min Rain = 0
KSP2 242342Z 06009KT 13/M08 A3012 RMK A01 T01251076  RH  024%=      5-min Rain = 0
KSP2 242343Z 06009KT 13/M08 A3012 RMK A01 T01251076  RH  024%=      5-min Rain = 0
KSP2 242344Z 08009KT 13/M08 A3012 RMK A01 T01251076  RH  024%=      5-min Rain = 0
KSP2 242345Z 08011KT 13/M08 A3012 RMK A01 T01251075  RH  024%=      5-min Rain = 0
KSP2 242346Z 08011KT 12/M08 A3012 RMK A01 T01241078  RH  024%=      5-min Rain = 0
KSP2 242347Z 08011KT 12/M08 A3012 RMK A01 T01231078  RH  024%=      5-min Rain = 0
KSP2 242348Z 07010KT 12/M08 A3012 RMK A01 T01231078  RH  024%=      5-min Rain = 0
KSP2 242349Z 07009KT 12/M08 A3012 RMK A01 T01221077  RH  024%=      5-min Rain = 0
KSP2 242350Z 08009KT 12/M08 A3012 RMK A01 T01221076  RH  024%=      5-min Rain = 0
KSP2 242351Z 07009KT 12/M08 A3013 RMK A01 T01221076  RH  024%=      5-min Rain = 0
KSP2 242352Z 06008KT 12/M08 A3013 RMK A01 T01221076  RH  024%=      5-min Rain = 0
KSP2 242353Z 06007KT 12/M08 A3013 RMK A01 T01221076  RH  024%=      5-min Rain = 0
KSP2 242354Z 06008KT 12/M07 A3013 RMK A01 T01221074  RH  025%=      5-min Rain = 0
KSP2 242355Z 08007KT 12/M07 A3013 RMK A01 T01221074  RH  025%=      5-min Rain = 0
KSP2 242356Z 08010KT 12/M07 A3013 RMK A01 T01221073  RH  025%=      5-min Rain = 0
KSP2 242357Z 07008KT 12/M07 A3013 RMK A01 T01211074  RH  025%=      5-min Rain = 0
KSP2 242358Z 07009KT 12/M07 A3013 RMK A01 T01201074  RH  025%=      5-min Rain = 0
KSP2 242359Z 08008KT 12/M07 A3013 RMK A01 T01201074  RH  025%=      5-min Rain = 0
KSP2 250000Z 08011KT 12/M07 A3013 RMK A01 T01191074  RH  025%=      5-min Rain = 0
KSP2 250001Z 07009KT 12/M08 A3013 RMK A01 T01181076  RH  025%=      5-min Rain = 0
KSP2 250002Z 07010KT 12/M08 A3013 RMK A01 T01181075  RH  025%=      5-min Rain = 0
KSP2 250003Z 06010KT 12/M08 A3013 RMK A01 T01181076  RH  025%=      5-min Rain = 0
KSP2 250004Z 07008KT 12/M08 A3013 RMK A01 T01171075  RH  025%=      5-min Rain = 0
KSP2 250005Z 07008KT 12/M08 A3013 RMK A01 T01171075  RH  025%=      5-min Rain = 0
KSP2 250006Z 07009KT 12/M08 A3013 RMK A01 T01161075  RH  025%=      5-min Rain = 0
KSP2 250007Z 07009KT 12/M08 A3013 RMK A01 T01161076  RH  025%=      5-min Rain = 0
KSP2 250008Z 07008KT 12/M07 A3013 RMK A01 T01161074  RH  026%=      5-min Rain = 0
KSP2 250009Z 07007KT 12/M07 A3013 RMK A01 T01151074  RH  026%=      5-min Rain = 0
KSP2 250010Z 07007KT 11/M07 A3013 RMK A01 T01141074  RH  026%=      5-min Rain = 0
KSP2 250011Z 07008KT 11/M07 A3013 RMK A01 T01141074  RH  026%=      5-min Rain = 0
KSP2 250012Z 07009KT 11/M08 A3013 RMK A01 T01131075  RH  026%=      5-min Rain = 0
KSP2 250013Z 07008KT 11/M08 A3013 RMK A01 T01131075  RH  026%=      5-min Rain = 0
KSP2 250014Z 07008KT 11/M07 A3013 RMK A01 T01131074  RH  026%=      5-min Rain = 0
KSP2 250015Z 07009KT 11/M07 A3013 RMK A01 T01121074  RH  026%=      5-min Rain = 0
KSP2 250016Z 07009KT 11/M08 A3013 RMK A01 T01111075  RH  026%=      5-min Rain = 0
KSP2 250017Z 06009KT 11/M08 A3013 RMK A01 T01111075  RH  026%=      5-min Rain = 0
KSP2 250018Z 07008KT 11/M08 A3013 RMK A01 T01101075  RH  026%=      5-min Rain = 0
KSP2 250019Z 07008KT 11/M08 A3013 RMK A01 T01091075  RH  027%=      5-min Rain = 0
KSP2 250020Z 07008KT 11/M08 A3013 RMK A01 T01081076  RH  027%=      5-min Rain = 0
KSP2 250021Z 07008KT 11/M08 A3013 RMK A01 T01081076  RH  027%=      5-min Rain = 0
KSP2 250022Z 07007KT 11/M08 A3013 RMK A01 T01071076  RH  027%=      5-min Rain = 0
KSP2 250023Z 07007KT 11/M08 A3013 RMK A01 T01061076  RH  027%=      5-min Rain = 0
KSP2 250024Z 07007KT 11/M08 A3013 RMK A01 T01051076  RH  027%=      5-min Rain = 0
KSP2 250025Z 07009KT 10/M08 A3013 RMK A01 T01041076  RH  027%=      5-min Rain = 0
KSP2 250026Z 07007KT 11/M08 A3013 RMK A01 T01051076  RH  027%=      5-min Rain = 0
KSP2 250027Z 07007KT 10/M08 A3013 RMK A01 T01041076  RH  028%=      5-min Rain = 0
KSP2 250028Z 07007KT 10/M08 A3013 RMK A01 T01031075  RH  028%=      5-min Rain = 0
KSP2 250029Z 07008KT 10/M08 A3013 RMK A01 T01021076  RH  028%=      5-min Rain = 0
KSP2 250030Z 07007KT 10/M08 A3013 RMK A01 T01011076  RH  028%=      5-min Rain = 0
KSP2 250031Z 06007KT 10/M08 A3014 RMK A01 T01011076  RH  028%=      5-min Rain = 0
KSP2 250032Z 06007KT 10/M08 A3014 RMK A01 T01001076  RH  028%=      5-min Rain = 0
KSP2 250033Z 06006KT 10/M08 A3014 RMK A01 T00981076  RH  029%=      5-min Rain = 0
KSP2 250034Z 06007KT 10/M08 A3014 RMK A01 T00961076  RH  029%=      5-min Rain = 0
KSP2 250035Z 07006KT 10/M08 A3014 RMK A01 T00951076  RH  029%=      5-min Rain = 0
KSP2 250036Z 07007KT 09/M08 A3014 RMK A01 T00931076  RH  029%=      5-min Rain = 0
KSP2 250037Z 07006KT 09/M08 A3014 RMK A01 T00911076  RH  030%=      5-min Rain = 0
KSP2 250038Z 07007KT 09/M08 A3014 RMK A01 T00891077  RH  030%=      5-min Rain = 0
KSP2 250039Z 06007KT 09/M08 A3014 RMK A01 T00881077  RH  030%=      5-min Rain = 0
KSP2 250040Z 06006KT 09/M08 A3014 RMK A01 T00871077  RH  031%=      5-min Rain = 0
KSP2 250041Z 06006KT 09/M08 A3014 RMK A01 T00871076  RH  031%=      5-min Rain = 0
KSP2 250042Z 05005KT 09/M08 A3014 RMK A01 T00861076  RH  031%=      5-min Rain = 0
KSP2 250043Z 05005KT 09/M08 A3014 RMK A01 T00851076  RH  031%=      5-min Rain = 0
KSP2 250044Z 05005KT 08/M08 A3014 RMK A01 T00841076  RH  031%=      5-min Rain = 0
KSP2 250045Z 05005KT 08/M08 A3014 RMK A01 T00841076  RH  031%=      5-min Rain = 0
KSP2 250046Z 06005KT 08/M08 A3014 RMK A01 T00841076  RH  031%=      5-min Rain = 0
KSP2 250047Z 06005KT 08/M08 A3015 RMK A01 T00841076  RH  031%=      5-min Rain = 0
KSP2 250048Z 06005KT 08/M08 A3015 RMK A01 T00831076  RH  032%=      5-min Rain = 0
KSP2 250049Z 05005KT 08/M08 A3015 RMK A01 T00821076  RH  032%=      5-min Rain = 0
KSP2 250050Z 05005KT 08/M08 A3015 RMK A01 T00811076  RH  032%=      5-min Rain = 0
KSP2 250051Z 05005KT 08/M08 A3015 RMK A01 T00801076  RH  032%=      5-min Rain = 0
KSP2 250052Z 05005KT 08/M08 A3015 RMK A01 T00801076  RH  032%=      5-min Rain = 0
KSP2 250053Z 05004KT 08/M08 A3015 RMK A01 T00801075  RH  032%=      5-min Rain = 0
KSP2 250054Z 05005KT 08/M08 A3015 RMK A01 T00801075  RH  032%=      5-min Rain = 0
KSP2 250055Z 06004KT 08/M08 A3015 RMK A01 T00801075  RH  033%=      5-min Rain = 0
KSP2 250056Z 06005KT 08/M08 A3015 RMK A01 T00801075  RH  033%=      5-min Rain = 0
KSP2 250057Z 06005KT 08/M08 A3015 RMK A01 T00771076  RH  033%=      5-min Rain = 0
KSP2 250058Z 06005KT 07/M08 A3015 RMK A01 T00741077  RH  033%=      5-min Rain = 0
KSP2 250059Z 07005KT 07/M08 A3015 RMK A01 T00721076  RH  034%=      5-min Rain = 0
KSP2 250100Z 07005KT 07/M08 A3015 RMK A01 T00711076  RH  034%=      5-min Rain = 0
KSP2 250101Z 07006KT 07/M08 A3015 RMK A01 T00701076  RH  035%=      5-min Rain = 0
KSP2 250102Z 07006KT 07/M08 A3015 RMK A01 T00681076  RH  035%=      5-min Rain = 0
KSP2 250103Z 07006KT 07/M08 A3016 RMK A01 T00671077  RH  035%=      5-min Rain = 0
KSP2 250104Z 07006KT 07/M08 A3016 RMK A01 T00651077  RH  036%=      5-min Rain = 0
KSP2 250105Z 07005KT 06/M08 A3016 RMK A01 T00621078  RH  036%=      5-min Rain = 0
KSP2 250106Z 07005KT 06/M08 A3016 RMK A01 T00601077  RH  037%=      5-min Rain = 0
KSP2 250107Z 07005KT 06/M08 A3015 RMK A01 T00581077  RH  037%=      5-min Rain = 0
KSP2 250108Z 07005KT 06/M08 A3016 RMK A01 T00561078  RH  037%=      5-min Rain = 0
KSP2 250109Z 07005KT 06/M08 A3016 RMK A01 T00551078  RH  038%=      5-min Rain = 0
KSP2 250110Z 07005KT 05/M08 A3016 RMK A01 T00541078  RH  038%=      5-min Rain = 0
KSP2 250111Z 07005KT 05/M08 A3016 RMK A01 T00501080  RH  038%=      5-min Rain = 0
KSP2 250112Z 06004KT 05/M08 A3016 RMK A01 T00481079  RH  039%=      5-min Rain = 0
KSP2 250113Z 06004KT 05/M08 A3016 RMK A01 T00491078  RH  040%=      5-min Rain = 0
KSP2 250114Z 06003KT 05/M08 A3016 RMK A01 T00511077  RH  039%=      5-min Rain = 0
KSP2 250115Z 06003KT 05/M08 A3016 RMK A01 T00531076  RH  039%=      5-min Rain = 0
KSP2 250116Z 06003KT 05/M08 A3016 RMK A01 T00541077  RH  038%=      5-min Rain = 0
KSP2 250117Z 05004KT 05/M08 A3016 RMK A01 T00541077  RH  038%=      5-min Rain = 0
KSP2 250118Z 05004KT 05/M08 A3017 RMK A01 T00541077  RH  038%=      5-min Rain = 0
KSP2 250119Z 06004KT 06/M08 A3017 RMK A01 T00551076  RH  038%=      5-min Rain = 0
KSP2 250120Z 06004KT 05/M08 A3017 RMK A01 T00521079  RH  038%=      5-min Rain = 0
KSP2 250121Z 06004KT 05/M08 A3017 RMK A01 T00501078  RH  039%=      5-min Rain = 0
KSP2 250122Z 06004KT 05/M08 A3017 RMK A01 T00491076  RH  040%=      5-min Rain = 0
KSP2 250123Z 06004KT 05/M08 A3017 RMK A01 T00501075  RH  040%=      5-min Rain = 0
KSP2 250124Z 06004KT 05/M07 A3017 RMK A01 T00511074  RH  040%=      5-min Rain = 0
KSP2 250125Z 06004KT 05/M07 A3017 RMK A01 T00521073  RH  040%=      5-min Rain = 0
KSP2 250126Z 06004KT 05/M07 A3017 RMK A01 T00531072  RH  040%=      5-min Rain = 0
KSP2 250127Z 06005KT 06/M07 A3017 RMK A01 T00551071  RH  040%=      5-min Rain = 0
KSP2 250128Z 06005KT 06/M07 A3017 RMK A01 T00561072  RH  039%=      5-min Rain = 0
KSP2 250129Z 06005KT 06/M07 A3017 RMK A01 T00571072  RH  039%=      5-min Rain = 0
KSP2 250130Z 06005KT 06/M07 A3017 RMK A01 T00581073  RH  039%=      5-min Rain = 0
KSP2 250131Z 06005KT 06/M07 A3017 RMK A01 T00581073  RH  038%=      5-min Rain = 0
KSP2 250132Z 05006KT 06/M07 A3017 RMK A01 T00591073  RH  038%=      5-min Rain = 0
KSP2 250133Z 05006KT 06/M07 A3017 RMK A01 T00601074  RH  038%=      5-min Rain = 0
KSP2 250134Z 05006KT 06/M07 A3017 RMK A01 T00611073  RH  037%=      5-min Rain = 0
KSP2 250135Z 05006KT 06/M07 A3017 RMK A01 T00621073  RH  037%=      5-min Rain = 0
KSP2 250136Z 05006KT 06/M07 A3017 RMK A01 T00631073  RH  037%=      5-min Rain = 0
KSP2 250137Z 05006KT 06/M07 A3017 RMK A01 T00631073  RH  037%=      5-min Rain = 0
KSP2 250138Z 05007KT 06/M07 A3017 RMK A01 T00631073  RH  037%=      5-min Rain = 0
KSP2 250139Z 05007KT 06/M07 A3017 RMK A01 T00631073  RH  037%=      5-min Rain = 0
KSP2 250140Z 05007KT 06/M07 A3018 RMK A01 T00621073  RH  037%=      5-min Rain = 0
KSP2 250141Z 05007KT 06/M07 A3018 RMK A01 T00621073  RH  037%=      5-min Rain = 0
KSP2 250142Z 05007KT 06/M07 A3018 RMK A01 T00611073  RH  037%=      5-min Rain = 0
KSP2 250143Z 05007KT 06/M07 A3018 RMK A01 T00611074  RH  037%=      5-min Rain = 0
KSP2 250144Z 05007KT 06/M07 A3018 RMK A01 T00601074  RH  038%=      5-min Rain = 0
KSP2 250145Z 05007KT 06/M07 A3018 RMK A01 T00601074  RH  038%=      5-min Rain = 0
KSP2 250146Z 05007KT 06/M07 A3018 RMK A01 T00611074  RH  037%=      5-min Rain = 0
KSP2 250147Z 05007KT 06/M07 A3018 RMK A01 T00611074  RH  037%=      5-min Rain = 0
KSP2 250148Z 05007KT 06/M07 A3018 RMK A01 T00611074  RH  037%=      5-min Rain = 0
KSP2 250149Z 05006KT 06/M07 A3018 RMK A01 T00611074  RH  037%=      5-min Rain = 0
KSP2 250150Z 05007KT 06/M07 A3018 RMK A01 T00601074  RH  038%=      5-min Rain = 0
KSP2 250151Z 05006KT 06/M07 A3018 RMK A01 T00591074  RH  038%=      5-min Rain = 0
KSP2 250152Z 05006KT 06/M07 A3018 RMK A01 T00581074  RH  038%=      5-min Rain = 0
KSP2 250153Z 05006KT 06/M07 A3018 RMK A01 T00571074  RH  038%=      5-min Rain = 0
KSP2 250154Z 05006KT 06/M07 A3018 RMK A01 T00571074  RH  038%=      5-min Rain = 0
KSP2 250155Z 05006KT 06/M07 A3018 RMK A01 T00571074  RH  039%=      5-min Rain = 0
KSP2 250156Z 05006KT 06/M07 A3018 RMK A01 T00561074  RH  039%=      5-min Rain = 0
KSP2 250157Z 05006KT 06/M07 A3018 RMK A01 T00551074  RH  039%=      5-min Rain = 0
KSP2 250158Z 05005KT 06/M07 A3018 RMK A01 T00551074  RH  039%=      5-min Rain = 0
KSP2 250159Z 05006KT 05/M07 A3019 RMK A01 T00541074  RH  039%=      5-min Rain = 0
KSP2 250200Z 05005KT 05/M08 A3019 RMK A01 T00531075  RH  039%=      5-min Rain = 0
KSP2 250201Z 05004KT 05/M08 A3019 RMK A01 T00511075  RH  040%=      5-min Rain = 0
KSP2 250202Z 06005KT 05/M08 A3019 RMK A01 T00501075  RH  040%=      5-min Rain = 0
KSP2 250203Z 06004KT 05/M07 A3019 RMK A01 T00501074  RH  040%=      5-min Rain = 0
KSP2 250204Z 06004KT 05/M07 A3019 RMK A01 T00491074  RH  041%=      5-min Rain = 0
KSP2 250205Z 06004KT 05/M07 A3019 RMK A01 T00491074  RH  041%=      5-min Rain = 0
KSP2 250206Z 07004KT 05/M07 A3019 RMK A01 T00481074  RH  041%=      5-min Rain = 0
KSP2 250207Z 07003KT 05/M07 A3019 RMK A01 T00481074  RH  041%=      5-min Rain = 0
KSP2 250208Z 07003KT 05/M07 A3019 RMK A01 T00481074  RH  041%=      5-min Rain = 0
KSP2 250209Z 07003KT 05/M07 A3019 RMK A01 T00491074  RH  041%=      5-min Rain = 0
KSP2 250210Z 07003KT 05/M07 A3019 RMK A01 T00491074  RH  041%=      5-min Rain = 0
KSP2 250211Z 08003KT 05/M08 A3019 RMK A01 T00471075  RH  041%=      5-min Rain = 0
KSP2 250212Z 07004KT 05/M07 A3019 RMK A01 T00471074  RH  041%=      5-min Rain = 0
KSP2 250213Z 08004KT 05/M07 A3019 RMK A01 T00471074  RH  041%=      5-min Rain = 0
KSP2 250214Z 08005KT 05/M07 A3019 RMK A01 T00471074  RH  041%=      5-min Rain = 0
KSP2 250215Z 07005KT 05/M08 A3019 RMK A01 T00461075  RH  041%=      5-min Rain = 0
KSP2 250216Z 08005KT 05/M07 A3019 RMK A01 T00451074  RH  042%=      5-min Rain = 0
KSP2 250217Z 08005KT 05/M07 A3019 RMK A01 T00451074  RH  042%=      5-min Rain = 0
KSP2 250218Z 08005KT 04/M08 A3019 RMK A01 T00441075  RH  042%=      5-min Rain = 0
KSP2 250219Z 08005KT 04/M08 A3019 RMK A01 T00421075  RH  042%=      5-min Rain = 0
KSP2 250220Z 09005KT 04/M07 A3019 RMK A01 T00411074  RH  043%=      5-min Rain = 0
KSP2 250221Z 08005KT 04/M07 A3019 RMK A01 T00401073  RH  043%=      5-min Rain = 0
KSP2 250222Z 08004KT 04/M07 A3019 RMK A01 T00381073  RH  044%=      5-min Rain = 0
KSP2 250223Z 08005KT 04/M07 A3019 RMK A01 T00371074  RH  044%=      5-min Rain = 0
KSP2 250224Z 08005KT 04/M07 A3019 RMK A01 T00361073  RH  045%=      5-min Rain = 0
KSP2 250225Z 08005KT 04/M07 A3019 RMK A01 T00361072  RH  045%=      5-min Rain = 0
KSP2 250226Z 09004KT 04/M07 A3019 RMK A01 T00351072  RH  045%=      5-min Rain = 0
KSP2 250227Z 08004KT 04/M07 A3019 RMK A01 T00351072  RH  046%=      5-min Rain = 0
KSP2 250228Z 08005KT 04/M07 A3019 RMK A01 T00351072  RH  046%=      5-min Rain = 0
KSP2 250229Z 08004KT 04/M07 A3019 RMK A01 T00351072  RH  045%=      5-min Rain = 0
KSP2 250230Z 08004KT 03/M07 A3019 RMK A01 T00341072  RH  046%=      5-min Rain = 0
KSP2 250231Z 08004KT 03/M07 A3019 RMK A01 T00321073  RH  046%=      5-min Rain = 0
KSP2 250232Z 07004KT 03/M07 A3019 RMK A01 T00311073  RH  047%=      5-min Rain = 0
KSP2 250233Z 07004KT 03/M07 A3019 RMK A01 T00301073  RH  047%=      5-min Rain = 0
KSP2 250234Z 08004KT 03/M07 A3019 RMK A01 T00301073  RH  047%=      5-min Rain = 0
KSP2 250235Z 08004KT 03/M07 A3019 RMK A01 T00301073  RH  047%=      5-min Rain = 0
KSP2 250236Z 08004KT 03/M07 A3019 RMK A01 T00311071  RH  047%=      5-min Rain = 0
KSP2 250237Z 08005KT 03/M07 A3019 RMK A01 T00331071  RH  047%=      5-min Rain = 0
KSP2 250238Z 08005KT 04/M07 A3019 RMK A01 T00351070  RH  046%=      5-min Rain = 0
KSP2 250239Z 07005KT 04/M07 A302 RMK A01 T00351070  RH  046%=      5-min Rain = 0
KSP2 250240Z 07005KT 04/M07 A302 RMK A01 T00351070  RH  046%=      5-min Rain = 0
KSP2 250241Z 07004KT 04/M07 A302 RMK A01 T00351070  RH  046%=      5-min Rain = 0
KSP2 250242Z 08005KT 04/M07 A302 RMK A01 T00351070  RH  046%=      5-min Rain = 0
KSP2 250243Z 08004KT 04/M07 A302 RMK A01 T00351070  RH  046%=      5-min Rain = 0
KSP2 250244Z 08005KT 04/M07 A302 RMK A01 T00351070  RH  046%=      5-min Rain = 0
KSP2 250245Z 08005KT 04/M07 A302 RMK A01 T00371070  RH  046%=      5-min Rain = 0
KSP2 250246Z 07005KT 04/M07 A302 RMK A01 T00381070  RH  045%=      5-min Rain = 0
KSP2 250247Z 07004KT 04/M07 A302 RMK A01 T00391071  RH  045%=      5-min Rain = 0
KSP2 250248Z 07004KT 04/M07 A302 RMK A01 T00381071  RH  045%=      5-min Rain = 0
KSP2 250249Z 06004KT 04/M07 A302 RMK A01 T00361071  RH  045%=      5-min Rain = 0
KSP2 250250Z 05003KT 04/M07 A302 RMK A01 T00361071  RH  045%=      5-min Rain = 0
KSP2 250251Z 05003KT 04/M07 A302 RMK A01 T00361072  RH  045%=      5-min Rain = 0
KSP2 250252Z 06004KT 04/M07 A302 RMK A01 T00361071  RH  045%=      5-min Rain = 0
KSP2 250253Z 06005KT 04/M07 A302 RMK A01 T00361071  RH  045%=      5-min Rain = 0
KSP2 250254Z 06005KT 04/M07 A302 RMK A01 T00361071  RH  045%=      5-min Rain = 0
KSP2 250255Z 06005KT 04/M07 A302 RMK A01 T00371070  RH  046%=      5-min Rain = 0
KSP2 250256Z 06006KT 04/M07 A302 RMK A01 T00371070  RH  045%=      5-min Rain = 0
KSP2 250257Z 06006KT 04/M07 A302 RMK A01 T00411069  RH  045%=      5-min Rain = 0
KSP2 250258Z 07006KT 04/M07 A302 RMK A01 T00441068  RH  044%=      5-min Rain = 0
KSP2 250259Z 07007KT 05/M07 A302 RMK A01 T00461068  RH  043%=      5-min Rain = 0
KSP2 250300Z 07007KT 05/M07 A302 RMK A01 T00481068  RH  043%=      5-min Rain = 0
KSP2 250301Z 07007KT 05/M07 A302 RMK A01 T00501069  RH  042%=      5-min Rain = 0
KSP2 250302Z 07007KT 05/M07 A302 RMK A01 T00501069  RH  042%=      5-min Rain = 0
KSP2 250303Z 07007KT 05/M07 A302 RMK A01 T00501070  RH  042%=      5-min Rain = 0
KSP2 250304Z 07006KT 05/M07 A302 RMK A01 T00501070  RH  041%=      5-min Rain = 0
KSP2 250305Z 07006KT 05/M07 A302 RMK A01 T00501071  RH  041%=      5-min Rain = 0
KSP2 250306Z 07006KT 05/M07 A302 RMK A01 T00501071  RH  041%=      5-min Rain = 0
KSP2 250307Z 07006KT 05/M07 A302 RMK A01 T00511072  RH  041%=      5-min Rain = 0
KSP2 250308Z 07006KT 05/M07 A302 RMK A01 T00511071  RH  041%=      5-min Rain = 0
KSP2 250309Z 07006KT 05/M07 A302 RMK A01 T00521072  RH  041%=      5-min Rain = 0
KSP2 250310Z 07007KT 05/M07 A302 RMK A01 T00521072  RH  041%=      5-min Rain = 0
KSP2 250311Z 07007KT 05/M07 A302 RMK A01 T00521072  RH  040%=      5-min Rain = 0
KSP2 250312Z 07007KT 05/M07 A302 RMK A01 T00531072  RH  040%=      5-min Rain = 0
KSP2 250313Z 07007KT 05/M07 A302 RMK A01 T00531073  RH  040%=      5-min Rain = 0
KSP2 250314Z 07007KT 05/M07 A302 RMK A01 T00531072  RH  040%=      5-min Rain = 0
KSP2 250315Z 07007KT 05/M07 A302 RMK A01 T00531073  RH  040%=      5-min Rain = 0
KSP2 250316Z 07007KT 05/M07 A302 RMK A01 T00531073  RH  040%=      5-min Rain = 0
KSP2 250317Z 07007KT 06/M07 A302 RMK A01 T00551074  RH  039%=      5-min Rain = 0
KSP2 250318Z 07008KT 06/M07 A302 RMK A01 T00561074  RH  039%=      5-min Rain = 0
KSP2 250319Z 07008KT 06/M07 A302 RMK A01 T00571074  RH  038%=      5-min Rain = 0
KSP2 250320Z 07008KT 06/M08 A302 RMK A01 T00571075  RH  038%=      5-min Rain = 0
KSP2 250321Z 07008KT 06/M08 A302 RMK A01 T00581075  RH  038%=      5-min Rain = 0
KSP2 250322Z 07008KT 06/M07 A302 RMK A01 T00581074  RH  038%=      5-min Rain = 0
KSP2 250323Z 07008KT 06/M07 A302 RMK A01 T00581074  RH  038%=      5-min Rain = 0
KSP2 250324Z 07007KT 06/M08 A302 RMK A01 T00581075  RH  038%=      5-min Rain = 0
KSP2 250325Z 07007KT 06/M08 A302 RMK A01 T00571075  RH  038%=      5-min Rain = 0
KSP2 250326Z 07007KT 06/M08 A302 RMK A01 T00571075  RH  038%=      5-min Rain = 0
KSP2 250327Z 07007KT 06/M08 A302 RMK A01 T00571075  RH  038%=      5-min Rain = 0
KSP2 250328Z 07007KT 06/M08 A3021 RMK A01 T00571075  RH  038%=      5-min Rain = 0
KSP2 250329Z 07007KT 06/M08 A3021 RMK A01 T00571075  RH  038%=      5-min Rain = 0
KSP2 250330Z 07007KT 06/M08 A3021 RMK A01 T00561075  RH  038%=      5-min Rain = 0
KSP2 250331Z 07007KT 06/M08 A3021 RMK A01 T00551075  RH  038%=      5-min Rain = 0
KSP2 250332Z 07007KT 06/M08 A3021 RMK A01 T00551075  RH  039%=      5-min Rain = 0
KSP2 250333Z 07007KT 05/M08 A3021 RMK A01 T00541075  RH  039%=      5-min Rain = 0
KSP2 250334Z 07007KT 05/M08 A3021 RMK A01 T00541075  RH  039%=      5-min Rain = 0
KSP2 250335Z 07008KT 05/M08 A3021 RMK A01 T00531075  RH  039%=      5-min Rain = 0
KSP2 250336Z 07008KT 05/M08 A3021 RMK A01 T00541076  RH  039%=      5-min Rain = 0
KSP2 250337Z 07008KT 06/M08 A3021 RMK A01 T00551076  RH  039%=      5-min Rain = 0
KSP2 250338Z 07008KT 06/M08 A3021 RMK A01 T00551075  RH  039%=      5-min Rain = 0
KSP2 250339Z 07008KT 06/M08 A3021 RMK A01 T00551075  RH  039%=      5-min Rain = 0
KSP2 250340Z 08008KT 05/M08 A3021 RMK A01 T00541075  RH  039%=      5-min Rain = 0
KSP2 250341Z 08008KT 05/M08 A3021 RMK A01 T00541075  RH  039%=      5-min Rain = 0
KSP2 250342Z 08008KT 05/M08 A3021 RMK A01 T00531076  RH  039%=      5-min Rain = 0
KSP2 250343Z 08008KT 05/M08 A3021 RMK A01 T00521076  RH  039%=      5-min Rain = 0
KSP2 250344Z 08008KT 05/M08 A3021 RMK A01 T00521075  RH  039%=      5-min Rain = 0
KSP2 250345Z 08008KT 05/M08 A3021 RMK A01 T00521075  RH  039%=      5-min Rain = 0
KSP2 250346Z 08008KT 05/M08 A3021 RMK A01 T00521075  RH  039%=      5-min Rain = 0
KSP2 250347Z 08008KT 05/M08 A3021 RMK A01 T00521076  RH  039%=      5-min Rain = 0
KSP2 250348Z 08008KT 05/M08 A3021 RMK A01 T00531076  RH  039%=      5-min Rain = 0
KSP2 250349Z 07008KT 05/M08 A3021 RMK A01 T00531075  RH  039%=      5-min Rain = 0
KSP2 250350Z 07008KT 05/M08 A3021 RMK A01 T00531076  RH  039%=      5-min Rain = 0
KSP2 250351Z 07008KT 05/M08 A3021 RMK A01 T00531076  RH  039%=      5-min Rain = 0
KSP2 250352Z 08009KT 05/M08 A3021 RMK A01 T00531076  RH  039%=      5-min Rain = 0
KSP2 250353Z 07009KT 05/M08 A3021 RMK A01 T00531076  RH  039%=      5-min Rain = 0
KSP2 250354Z 07008KT 05/M08 A3021 RMK A01 T00541076  RH  038%=      5-min Rain = 0
KSP2 250355Z 07008KT 05/M08 A3021 RMK A01 T00541076  RH  038%=      5-min Rain = 0
KSP2 250356Z 07009KT 06/M08 A3021 RMK A01 T00551077  RH  038%=      5-min Rain = 0
KSP2 250357Z 07009KT 06/M08 A3021 RMK A01 T00551077  RH  038%=      5-min Rain = 0
KSP2 250358Z 07009KT 06/M08 A3021 RMK A01 T00551077  RH  038%=      5-min Rain = 0
KSP2 250359Z 08009KT 06/M08 A3021 RMK A01 T00551077  RH  038%=      5-min Rain = 0
KSP2 250400Z 08009KT 05/M08 A3021 RMK A01 T00541077  RH  038%=      5-min Rain = 0
KSP2 250401Z 08009KT 05/M08 A3021 RMK A01 T00541077  RH  038%=      5-min Rain = 0
KSP2 250402Z 08009KT 05/M08 A3021 RMK A01 T00541077  RH  038%=      5-min Rain = 0
KSP2 250403Z 08009KT 05/M08 A3021 RMK A01 T00531077  RH  038%=      5-min Rain = 0
KSP2 250404Z 08009KT 05/M08 A3021 RMK A01 T00531077  RH  039%=      5-min Rain = 0
KSP2 250405Z 08009KT 05/M08 A3021 RMK A01 T00521077  RH  039%=      5-min Rain = 0
KSP2 250406Z 08009KT 05/M08 A3021 RMK A01 T00521077  RH  039%=      5-min Rain = 0
KSP2 250407Z 08008KT 05/M08 A3021 RMK A01 T00511077  RH  039%=      5-min Rain = 0
KSP2 250408Z 07008KT 05/M08 A3021 RMK A01 T00511077  RH  039%=      5-min Rain = 0
KSP2 250409Z 08009KT 05/M08 A3021 RMK A01 T00511077  RH  039%=      5-min Rain = 0
KSP2 250410Z 07008KT 05/M08 A3021 RMK A01 T00501077  RH  039%=      5-min Rain = 0
KSP2 250411Z 07008KT 05/M08 A3021 RMK A01 T00501076  RH  039%=      5-min Rain = 0
KSP2 250412Z 07008KT 05/M08 A3021 RMK A01 T00501076  RH  039%=      5-min Rain = 0
KSP2 250413Z 08009KT 05/M08 A3021 RMK A01 T00501077  RH  040%=      5-min Rain = 0
KSP2 250414Z 07008KT 05/M08 A3021 RMK A01 T00491077  RH  040%=      5-min Rain = 0
KSP2 250415Z 08009KT 05/M08 A3021 RMK A01 T00491077  RH  040%=      5-min Rain = 0
KSP2 250416Z 07008KT 05/M08 A3021 RMK A01 T00491076  RH  040%=      5-min Rain = 0
KSP2 250417Z 07009KT 05/M08 A3021 RMK A01 T00491076  RH  040%=      5-min Rain = 0
KSP2 250418Z 07009KT 05/M08 A3021 RMK A01 T00481076  RH  040%=      5-min Rain = 0
KSP2 250419Z 07008KT 05/M08 A3021 RMK A01 T00481076  RH  040%=      5-min Rain = 0
KSP2 250420Z 07009KT 05/M08 A3021 RMK A01 T00481076  RH  040%=      5-min Rain = 0
KSP2 250421Z 07008KT 05/M08 A3021 RMK A01 T00481076  RH  040%=      5-min Rain = 0
KSP2 250422Z 08009KT 05/M08 A3021 RMK A01 T00481076  RH  040%=      5-min Rain = 0
KSP2 250423Z 07008KT 05/M08 A3021 RMK A01 T00481076  RH  040%=      5-min Rain = 0
KSP2 250424Z 08009KT 05/M08 A3021 RMK A01 T00481076  RH  040%=      5-min Rain = 0
KSP2 250425Z 08009KT 05/M08 A3021 RMK A01 T00481076  RH  040%=      5-min Rain = 0
KSP2 250426Z 08010KT 05/M08 A3021 RMK A01 T00481076  RH  040%=      5-min Rain = 0
KSP2 250427Z 08008KT 05/M08 A3021 RMK A01 T00491076  RH  040%=      5-min Rain = 0
KSP2 250428Z 08009KT 05/M08 A3021 RMK A01 T00491076  RH  040%=      5-min Rain = 0
KSP2 250429Z 08009KT 05/M08 A3021 RMK A01 T00491077  RH  040%=      5-min Rain = 0
KSP2 250430Z 08009KT 05/M08 A3021 RMK A01 T00501077  RH  039%=      5-min Rain = 0
KSP2 250431Z 08009KT 05/M08 A3021 RMK A01 T00501076  RH  040%=      5-min Rain = 0
KSP2 250432Z 08009KT 05/M08 A3021 RMK A01 T00491076  RH  040%=      5-min Rain = 0
KSP2 250433Z 08008KT 05/M08 A3021 RMK A01 T00491076  RH  040%=      5-min Rain = 0
KSP2 250434Z 08010KT 05/M08 A3021 RMK A01 T00491077  RH  040%=      5-min Rain = 0
KSP2 250435Z 08009KT 05/M08 A3021 RMK A01 T00491077  RH  039%=      5-min Rain = 0
KSP2 250436Z 08009KT 05/M08 A3021 RMK A01 T00501077  RH  039%=      5-min Rain = 0
KSP2 250437Z 08009KT 05/M08 A3021 RMK A01 T00491077  RH  040%=      5-min Rain = 0
KSP2 250438Z 08009KT 05/M08 A3021 RMK A01 T00491077  RH  040%=      5-min Rain = 0
KSP2 250439Z 08009KT 05/M08 A3021 RMK A01 T00491077  RH  040%=      5-min Rain = 0
KSP2 250440Z 08010KT 05/M08 A3021 RMK A01 T00491077  RH  040%=      5-min Rain = 0
KSP2 250441Z 08010KT 05/M08 A3021 RMK A01 T00481077  RH  040%=      5-min Rain = 0
KSP2 250442Z 08008KT 05/M08 A3021 RMK A01 T00481077  RH  040%=      5-min Rain = 0
KSP2 250443Z 08010KT 05/M08 A3021 RMK A01 T00481078  RH  040%=      5-min Rain = 0
KSP2 250444Z 08010KT 05/M08 A3021 RMK A01 T00481078  RH  040%=      5-min Rain = 0
KSP2 250445Z 08010KT 05/M08 A3021 RMK A01 T00481078  RH  040%=      5-min Rain = 0
KSP2 250446Z 08009KT 05/M08 A3021 RMK A01 T00471078  RH  040%=      5-min Rain = 0
KSP2 250447Z 08009KT 05/M08 A3021 RMK A01 T00471077  RH  040%=      5-min Rain = 0
KSP2 250448Z 08011KT 05/M08 A3021 RMK A01 T00461078  RH  040%=      5-min Rain = 0
KSP2 250449Z 08010KT 05/M08 A302 RMK A01 T00461077  RH  040%=      5-min Rain = 0
KSP2 250450Z 08010KT 05/M08 A302 RMK A01 T00461077  RH  040%=      5-min Rain = 0
KSP2 250451Z 08010KT 05/M08 A302 RMK A01 T00461077  RH  040%=      5-min Rain = 0
KSP2 250452Z 08010KT 05/M08 A302 RMK A01 T00451077  RH  041%=      5-min Rain = 0
KSP2 250453Z 08010KT 05/M08 A302 RMK A01 T00451077  RH  041%=      5-min Rain = 0
KSP2 250454Z 08011KT 05/M08 A302 RMK A01 T00451077  RH  041%=      5-min Rain = 0
KSP2 250455Z 08011KT 05/M08 A302 RMK A01 T00451078  RH  040%=      5-min Rain = 0
KSP2 250456Z 08010KT 05/M08 A302 RMK A01 T00461078  RH  040%=      5-min Rain = 0
KSP2 250457Z 08011KT 05/M08 A302 RMK A01 T00451078  RH  040%=      5-min Rain = 0
KSP2 250458Z 08010KT 05/M08 A302 RMK A01 T00451078  RH  041%=      5-min Rain = 0
KSP2 250459Z 08011KT 05/M08 A302 RMK A01 T00451078  RH  040%=      5-min Rain = 0
KSP2 250500Z 07012KT 05/M08 A302 RMK A01 T00451078  RH  040%=      5-min Rain = 0
KSP2 250501Z 08012KT 05/M08 A302 RMK A01 T00451078  RH  040%=      5-min Rain = 0
KSP2 250502Z 08010KT 05/M08 A302 RMK A01 T00451078  RH  040%=      5-min Rain = 0
KSP2 250503Z 08011KT 05/M08 A302 RMK A01 T00451078  RH  040%=      5-min Rain = 0
KSP2 250504Z 08011KT 05/M08 A302 RMK A01 T00451078  RH  040%=      5-min Rain = 0
KSP2 250505Z 08011KT 05/M08 A3021 RMK A01 T00461078  RH  040%=      5-min Rain = 0
KSP2 250506Z 08010KT 05/M08 A3021 RMK A01 T00461078  RH  040%=      5-min Rain = 0
KSP2 250507Z 08011KT 05/M08 A3021 RMK A01 T00451078  RH  040%=      5-min Rain = 0
KSP2 250508Z 08011KT 04/M08 A3021 RMK A01 T00441077  RH  041%=      5-min Rain = 0
KSP2 250509Z 08013KT 04/M08 A3021 RMK A01 T00441077  RH  041%=      5-min Rain = 0
KSP2 250510Z 08011KT 05/M08 A3021 RMK A01 T00451077  RH  041%=      5-min Rain = 0
KSP2 250511Z 08011KT 05/M08 A3021 RMK A01 T00451077  RH  041%=      5-min Rain = 0
KSP2 250512Z 07012KT 05/M08 A3021 RMK A01 T00451077  RH  041%=      5-min Rain = 0
KSP2 250513Z 08012KT 04/M08 A3021 RMK A01 T00441077  RH  041%=      5-min Rain = 0
KSP2 250514Z 08012KT 04/M08 A3021 RMK A01 T00441076  RH  041%=      5-min Rain = 0
KSP2 250515Z 08012KT 04/M08 A3021 RMK A01 T00441076  RH  041%=      5-min Rain = 0
KSP2 250516Z 08011KT 04/M08 A3021 RMK A01 T00441076  RH  041%=      5-min Rain = 0
KSP2 250517Z 08012KT 04/M08 A3021 RMK A01 T00441076  RH  041%=      5-min Rain = 0
KSP2 250518Z 08010KT 04/M08 A3021 RMK A01 T00441076  RH  042%=      5-min Rain = 0
KSP2 250519Z 08011KT 04/M08 A3021 RMK A01 T00431075  RH  042%=      5-min Rain = 0
KSP2 250520Z 08011KT 04/M08 A3021 RMK A01 T00421075  RH  042%=      5-min Rain = 0
KSP2 250521Z 08012G17KT 04/M08 A3021 RMK A01 T00411075  RH  043%=      5-min Rain = 0
KSP2 250522Z 08013KT 04/M08 A3021 RMK A01 T00411075  RH  043%=      5-min Rain = 0
KSP2 250523Z 08013KT 04/M08 A3021 RMK A01 T00411075  RH  042%=      5-min Rain = 0
KSP2 250524Z 08013KT 04/M08 A3021 RMK A01 T00421075  RH  042%=      5-min Rain = 0
KSP2 250525Z 07014KT 04/M07 A3021 RMK A01 T00421074  RH  042%=      5-min Rain = 0
KSP2 250526Z 08015KT 04/M07 A3021 RMK A01 T00421074  RH  043%=      5-min Rain = 0
KSP2 250527Z 08014KT 04/M07 A3021 RMK A01 T00421074  RH  043%=      5-min Rain = 0
KSP2 250528Z 08011KT 04/M07 A3021 RMK A01 T00431073  RH  043%=      5-min Rain = 0
KSP2 250529Z 08012G17KT 04/M07 A3021 RMK A01 T00411074  RH  043%=      5-min Rain = 0
KSP2 250530Z 08011KT 04/M07 A3021 RMK A01 T00401074  RH  043%=      5-min Rain = 0
KSP2 250531Z 08013KT 04/M07 A3021 RMK A01 T00391074  RH  043%=      5-min Rain = 0
KSP2 250532Z 08012G17KT 04/M07 A302 RMK A01 T00401074  RH  043%=      5-min Rain = 0
KSP2 250533Z 07012KT 04/M07 A302 RMK A01 T00401073  RH  043%=      5-min Rain = 0
KSP2 250534Z 07013KT 04/M07 A3021 RMK A01 T00391073  RH  044%=      5-min Rain = 0
KSP2 250535Z 07013KT 04/M07 A3021 RMK A01 T00391074  RH  044%=      5-min Rain = 0
KSP2 250536Z 08013KT 04/M07 A3021 RMK A01 T00391073  RH  044%=      5-min Rain = 0
KSP2 250537Z 08014KT 04/M07 A3021 RMK A01 T00391073  RH  044%=      5-min Rain = 0
KSP2 250538Z 08016KT 04/M07 A3021 RMK A01 T00391073  RH  044%=      5-min Rain = 0
KSP2 250539Z 08016KT 04/M07 A3021 RMK A01 T00391073  RH  044%=      5-min Rain = 0
KSP2 250540Z 08015KT 04/M07 A3021 RMK A01 T00401073  RH  044%=      5-min Rain = 0
KSP2 250541Z 08016KT 04/M07 A3021 RMK A01 T00401073  RH  043%=      5-min Rain = 0
KSP2 250542Z 07014KT 04/M07 A3021 RMK A01 T00401073  RH  044%=      5-min Rain = 0
KSP2 250543Z 08014KT 04/M07 A3021 RMK A01 T00401073  RH  044%=      5-min Rain = 0
KSP2 250544Z 08013KT 04/M07 A3021 RMK A01 T00401073  RH  044%=      5-min Rain = 0
KSP2 250545Z 08015KT 04/M07 A3021 RMK A01 T00391073  RH  044%=      5-min Rain = 0
KSP2 250546Z 08013KT 04/M07 A3021 RMK A01 T00391073  RH  044%=      5-min Rain = 0
KSP2 250547Z 08013KT 04/M07 A3021 RMK A01 T00391073  RH  044%=      5-min Rain = 0
KSP2 250548Z 08012KT 04/M07 A3021 RMK A01 T00381073  RH  044%=      5-min Rain = 0
KSP2 250549Z 08012KT 04/M07 A3021 RMK A01 T00371073  RH  044%=      5-min Rain = 0
KSP2 250550Z 08014KT 04/M07 A3021 RMK A01 T00371073  RH  045%=      5-min Rain = 0
KSP2 250551Z 08013KT 04/M07 A3021 RMK A01 T00371073  RH  045%=      5-min Rain = 0
KSP2 250552Z 08013KT 04/M07 A3021 RMK A01 T00361073  RH  045%=      5-min Rain = 0
KSP2 250553Z 08012KT 04/M07 A3021 RMK A01 T00361072  RH  045%=      5-min Rain = 0
KSP2 250554Z 08011KT 04/M07 A3021 RMK A01 T00351072  RH  045%=      5-min Rain = 0
KSP2 250555Z 08011KT 03/M07 A3021 RMK A01 T00341072  RH  045%=      5-min Rain = 0
KSP2 250556Z 08011KT 03/M07 A3021 RMK A01 T00341072  RH  046%=      5-min Rain = 0
KSP2 250557Z 08011KT 03/M07 A3021 RMK A01 T00331072  RH  046%=      5-min Rain = 0
KSP2 250558Z 08013KT 03/M07 A3021 RMK A01 T00331072  RH  046%=      5-min Rain = 0
KSP2 250559Z 08011KT 03/M07 A3021 RMK A01 T00331072  RH  046%=      5-min Rain = 0

Page generated in 0.1836 seconds.